<?xml version="1.0" encoding="UTF-8" standalone="no" ?>
<gpx xmlns="http://www.topografix.com/GPX/1/1" xmlns:xsi="http://www.w3.org/2001/XMLSchema-instance" xsi:schemaLocation="http://www.topografix.com/GPX/1/1 http://www.topografix.com/GPX/1/1/gpx.xsd" version="1.1" creator="VisuGPX - https://www.visugpx.com">
  <metadata>
    <name>Marseille: le Mucem, la plage des Catalans, Le vallon des Auffes et le jardin du Pharo</name>
    <desc><![CDATA[Marseille: le Mucem, la plage des Catalans, Le vallon des Auffes et le jardin du Pharo]]></desc>
  </metadata>
  <trk>
    <name><![CDATA[2016-04-23 16:53:34]]></name>
    <trkseg>
      <trkpt lat="43.29203" lon="5.36854">
        <ele>31.86</ele>
        <time>2016-04-23T09:15:57Z</time>
      </trkpt>
      <trkpt lat="43.29204" lon="5.36855">
        <ele>31.86</ele>
        <time>2016-04-23T09:15:58Z</time>
      </trkpt>
      <trkpt lat="43.29208" lon="5.36866">
        <ele>31.38</ele>
        <time>2016-04-23T09:16:06Z</time>
      </trkpt>
      <trkpt lat="43.29215" lon="5.36885">
        <ele>29.46</ele>
        <time>2016-04-23T09:16:20Z</time>
      </trkpt>
      <trkpt lat="43.29215" lon="5.36902">
        <ele>29.94</ele>
        <time>2016-04-23T09:16:32Z</time>
      </trkpt>
      <trkpt lat="43.29218" lon="5.36907">
        <ele>30.9</ele>
        <time>2016-04-23T09:16:36Z</time>
      </trkpt>
      <trkpt lat="43.29233" lon="5.36898">
        <ele>35.71</ele>
        <time>2016-04-23T09:16:50Z</time>
      </trkpt>
      <trkpt lat="43.29252" lon="5.36889">
        <ele>33.78</ele>
        <time>2016-04-23T09:17:05Z</time>
      </trkpt>
      <trkpt lat="43.29273" lon="5.36881">
        <ele>27.05</ele>
        <time>2016-04-23T09:17:20Z</time>
      </trkpt>
      <trkpt lat="43.29284" lon="5.36881">
        <ele>24.65</ele>
        <time>2016-04-23T09:17:29Z</time>
      </trkpt>
      <trkpt lat="43.29287" lon="5.36884">
        <ele>24.17</ele>
        <time>2016-04-23T09:17:32Z</time>
      </trkpt>
      <trkpt lat="43.29288" lon="5.36888">
        <ele>23.21</ele>
        <time>2016-04-23T09:17:36Z</time>
      </trkpt>
      <trkpt lat="43.29296" lon="5.36919">
        <ele>20.32</ele>
        <time>2016-04-23T09:17:57Z</time>
      </trkpt>
      <trkpt lat="43.29301" lon="5.36943">
        <ele>18.4</ele>
        <time>2016-04-23T09:18:15Z</time>
      </trkpt>
      <trkpt lat="43.29305" lon="5.36967">
        <ele>12.63</ele>
        <time>2016-04-23T09:18:32Z</time>
      </trkpt>
      <trkpt lat="43.29309" lon="5.36994">
        <ele>8.31</ele>
        <time>2016-04-23T09:18:48Z</time>
      </trkpt>
      <trkpt lat="43.29316" lon="5.37023">
        <ele>6.87</ele>
        <time>2016-04-23T09:19:04Z</time>
      </trkpt>
      <trkpt lat="43.29324" lon="5.37056">
        <ele>6.39</ele>
        <time>2016-04-23T09:19:22Z</time>
      </trkpt>
      <trkpt lat="43.29335" lon="5.37105">
        <ele>1.58</ele>
        <time>2016-04-23T09:19:44Z</time>
      </trkpt>
      <trkpt lat="43.29337" lon="5.37111">
        <ele>1.58</ele>
        <time>2016-04-23T09:19:57Z</time>
      </trkpt>
      <trkpt lat="43.29336" lon="5.37113">
        <ele>2.54</ele>
        <time>2016-04-23T09:20:21Z</time>
      </trkpt>
      <trkpt lat="43.29337" lon="5.37112">
        <ele>3.5</ele>
        <time>2016-04-23T09:20:40Z</time>
      </trkpt>
      <trkpt lat="43.29338" lon="5.37115">
        <ele>3.98</ele>
        <time>2016-04-23T09:20:59Z</time>
      </trkpt>
      <trkpt lat="43.29342" lon="5.37116">
        <ele>0.62</ele>
        <time>2016-04-23T09:21:27Z</time>
      </trkpt>
      <trkpt lat="43.29345" lon="5.37114">
        <ele>0.14</ele>
        <time>2016-04-23T09:21:48Z</time>
      </trkpt>
      <trkpt lat="43.29346" lon="5.37111">
        <ele>0.62</ele>
        <time>2016-04-23T09:22:11Z</time>
      </trkpt>
      <trkpt lat="43.29346" lon="5.37109">
        <ele>1.58</ele>
        <time>2016-04-23T09:22:29Z</time>
      </trkpt>
      <trkpt lat="43.29344" lon="5.37111">
        <ele>1.58</ele>
        <time>2016-04-23T09:22:48Z</time>
      </trkpt>
      <trkpt lat="43.29348" lon="5.37107">
        <ele>3.02</ele>
        <time>2016-04-23T09:23:05Z</time>
      </trkpt>
      <trkpt lat="43.29348" lon="5.37112">
        <ele>1.58</ele>
        <time>2016-04-23T09:23:22Z</time>
      </trkpt>
      <trkpt lat="43.29351" lon="5.37109">
        <ele>3.5</ele>
        <time>2016-04-23T09:23:46Z</time>
      </trkpt>
      <trkpt lat="43.29355" lon="5.37107">
        <ele>1.58</ele>
        <time>2016-04-23T09:24:12Z</time>
      </trkpt>
      <trkpt lat="43.29357" lon="5.37107">
        <ele>1.58</ele>
        <time>2016-04-23T09:24:14Z</time>
      </trkpt>
      <trkpt lat="43.29399" lon="5.37089">
        <ele>2.06</ele>
        <time>2016-04-23T09:24:33Z</time>
      </trkpt>
      <trkpt lat="43.29449" lon="5.3707">
        <ele>4.46</ele>
        <time>2016-04-23T09:24:53Z</time>
      </trkpt>
      <trkpt lat="43.29509" lon="5.3706">
        <ele>4.46</ele>
        <time>2016-04-23T09:25:17Z</time>
      </trkpt>
      <trkpt lat="43.29562" lon="5.37048">
        <ele>3.98</ele>
        <time>2016-04-23T09:25:40Z</time>
      </trkpt>
      <trkpt lat="43.29577" lon="5.3705">
        <ele>5.91</ele>
        <time>2016-04-23T09:25:56Z</time>
      </trkpt>
      <trkpt lat="43.29578" lon="5.37053">
        <ele>6.87</ele>
        <time>2016-04-23T09:26:09Z</time>
      </trkpt>
      <trkpt lat="43.29583" lon="5.37051">
        <ele>6.87</ele>
        <time>2016-04-23T09:26:27Z</time>
      </trkpt>
      <trkpt lat="43.29589" lon="5.3705">
        <ele>5.42</ele>
        <time>2016-04-23T09:26:43Z</time>
      </trkpt>
      <trkpt lat="43.29592" lon="5.37046">
        <ele>3.98</ele>
        <time>2016-04-23T09:26:55Z</time>
      </trkpt>
      <trkpt lat="43.29596" lon="5.37046">
        <ele>3.98</ele>
        <time>2016-04-23T09:27:05Z</time>
      </trkpt>
      <trkpt lat="43.29597" lon="5.37043">
        <ele>4.46</ele>
        <time>2016-04-23T09:27:09Z</time>
      </trkpt>
      <trkpt lat="43.29595" lon="5.37024">
        <ele>4.94</ele>
        <time>2016-04-23T09:27:23Z</time>
      </trkpt>
      <trkpt lat="43.29591" lon="5.36989">
        <ele>3.5</ele>
        <time>2016-04-23T09:27:45Z</time>
      </trkpt>
      <trkpt lat="43.29591" lon="5.36956">
        <ele>4.46</ele>
        <time>2016-04-23T09:28:06Z</time>
      </trkpt>
      <trkpt lat="43.29596" lon="5.36938">
        <ele>6.87</ele>
        <time>2016-04-23T09:28:21Z</time>
      </trkpt>
      <trkpt lat="43.29597" lon="5.36934">
        <ele>7.35</ele>
        <time>2016-04-23T09:28:24Z</time>
      </trkpt>
      <trkpt lat="43.29594" lon="5.36914">
        <ele>8.79</ele>
        <time>2016-04-23T09:28:40Z</time>
      </trkpt>
      <trkpt lat="43.29595" lon="5.3691">
        <ele>9.27</ele>
        <time>2016-04-23T09:28:44Z</time>
      </trkpt>
      <trkpt lat="43.29595" lon="5.36908">
        <ele>9.75</ele>
        <time>2016-04-23T09:28:45Z</time>
      </trkpt>
      <trkpt lat="43.29595" lon="5.36906">
        <ele>9.75</ele>
        <time>2016-04-23T09:28:46Z</time>
      </trkpt>
      <trkpt lat="43.29595" lon="5.36905">
        <ele>10.23</ele>
        <time>2016-04-23T09:28:47Z</time>
      </trkpt>
      <trkpt lat="43.29595" lon="5.36898">
        <ele>10.71</ele>
        <time>2016-04-23T09:28:52Z</time>
      </trkpt>
      <trkpt lat="43.29592" lon="5.36875">
        <ele>11.67</ele>
        <time>2016-04-23T09:29:10Z</time>
      </trkpt>
      <trkpt lat="43.2959" lon="5.36845">
        <ele>14.56</ele>
        <time>2016-04-23T09:29:30Z</time>
      </trkpt>
      <trkpt lat="43.29586" lon="5.36812">
        <ele>13.12</ele>
        <time>2016-04-23T09:29:49Z</time>
      </trkpt>
      <trkpt lat="43.29581" lon="5.36784">
        <ele>11.67</ele>
        <time>2016-04-23T09:30:09Z</time>
      </trkpt>
      <trkpt lat="43.29578" lon="5.36761">
        <ele>11.67</ele>
        <time>2016-04-23T09:30:25Z</time>
      </trkpt>
      <trkpt lat="43.29575" lon="5.36744">
        <ele>13.12</ele>
        <time>2016-04-23T09:30:44Z</time>
      </trkpt>
      <trkpt lat="43.29573" lon="5.36733">
        <ele>10.23</ele>
        <time>2016-04-23T09:31:00Z</time>
      </trkpt>
      <trkpt lat="43.29567" lon="5.36706">
        <ele>9.75</ele>
        <time>2016-04-23T09:31:17Z</time>
      </trkpt>
      <trkpt lat="43.29566" lon="5.36701">
        <ele>10.23</ele>
        <time>2016-04-23T09:31:20Z</time>
      </trkpt>
      <trkpt lat="43.29567" lon="5.36699">
        <ele>10.23</ele>
        <time>2016-04-23T09:31:21Z</time>
      </trkpt>
      <trkpt lat="43.29566" lon="5.36697">
        <ele>10.23</ele>
        <time>2016-04-23T09:31:22Z</time>
      </trkpt>
      <trkpt lat="43.29566" lon="5.36696">
        <ele>10.23</ele>
        <time>2016-04-23T09:31:23Z</time>
      </trkpt>
      <trkpt lat="43.29565" lon="5.36694">
        <ele>10.23</ele>
        <time>2016-04-23T09:31:24Z</time>
      </trkpt>
      <trkpt lat="43.29562" lon="5.36667">
        <ele>12.63</ele>
        <time>2016-04-23T09:31:41Z</time>
      </trkpt>
      <trkpt lat="43.29557" lon="5.36639">
        <ele>13.6</ele>
        <time>2016-04-23T09:31:59Z</time>
      </trkpt>
      <trkpt lat="43.29552" lon="5.36615">
        <ele>12.63</ele>
        <time>2016-04-23T09:32:15Z</time>
      </trkpt>
      <trkpt lat="43.29548" lon="5.36604">
        <ele>11.19</ele>
        <time>2016-04-23T09:32:23Z</time>
      </trkpt>
      <trkpt lat="43.29547" lon="5.36602">
        <ele>10.71</ele>
        <time>2016-04-23T09:32:25Z</time>
      </trkpt>
      <trkpt lat="43.29546" lon="5.36601">
        <ele>10.71</ele>
        <time>2016-04-23T09:32:26Z</time>
      </trkpt>
      <trkpt lat="43.29542" lon="5.36579">
        <ele>8.31</ele>
        <time>2016-04-23T09:32:42Z</time>
      </trkpt>
      <trkpt lat="43.29537" lon="5.36548">
        <ele>5.42</ele>
        <time>2016-04-23T09:33:01Z</time>
      </trkpt>
      <trkpt lat="43.29536" lon="5.36545">
        <ele>5.42</ele>
        <time>2016-04-23T09:33:03Z</time>
      </trkpt>
      <trkpt lat="43.29536" lon="5.36543">
        <ele>5.42</ele>
        <time>2016-04-23T09:33:04Z</time>
      </trkpt>
      <trkpt lat="43.29536" lon="5.36538">
        <ele>5.91</ele>
        <time>2016-04-23T09:33:08Z</time>
      </trkpt>
      <trkpt lat="43.29535" lon="5.36535">
        <ele>8.79</ele>
        <time>2016-04-23T09:33:27Z</time>
      </trkpt>
      <trkpt lat="43.29538" lon="5.36533">
        <ele>8.31</ele>
        <time>2016-04-23T09:33:32Z</time>
      </trkpt>
      <trkpt lat="43.29554" lon="5.36522">
        <ele>6.87</ele>
        <time>2016-04-23T09:33:47Z</time>
      </trkpt>
      <trkpt lat="43.29554" lon="5.36517">
        <ele>4.94</ele>
        <time>2016-04-23T09:33:59Z</time>
      </trkpt>
      <trkpt lat="43.29547" lon="5.365">
        <ele>1.58</ele>
        <time>2016-04-23T09:34:11Z</time>
      </trkpt>
      <trkpt lat="43.29545" lon="5.36486">
        <ele>2.06</ele>
        <time>2016-04-23T09:34:20Z</time>
      </trkpt>
      <trkpt lat="43.29547" lon="5.36479">
        <ele>3.5</ele>
        <time>2016-04-23T09:34:25Z</time>
      </trkpt>
      <trkpt lat="43.29549" lon="5.36474">
        <ele>4.46</ele>
        <time>2016-04-23T09:34:28Z</time>
      </trkpt>
      <trkpt lat="43.29545" lon="5.36458">
        <ele>5.42</ele>
        <time>2016-04-23T09:34:43Z</time>
      </trkpt>
      <trkpt lat="43.29543" lon="5.36457">
        <ele>4.94</ele>
        <time>2016-04-23T09:34:46Z</time>
      </trkpt>
      <trkpt lat="43.29539" lon="5.36449">
        <ele>3.5</ele>
        <time>2016-04-23T09:34:52Z</time>
      </trkpt>
      <trkpt lat="43.29539" lon="5.36435">
        <ele>3.5</ele>
        <time>2016-04-23T09:35:00Z</time>
      </trkpt>
      <trkpt lat="43.29537" lon="5.36417">
        <ele>5.42</ele>
        <time>2016-04-23T09:35:17Z</time>
      </trkpt>
      <trkpt lat="43.29541" lon="5.36407">
        <ele>6.39</ele>
        <time>2016-04-23T09:35:28Z</time>
      </trkpt>
      <trkpt lat="43.29546" lon="5.36399">
        <ele>5.91</ele>
        <time>2016-04-23T09:35:35Z</time>
      </trkpt>
      <trkpt lat="43.29564" lon="5.36378">
        <ele>1.1</ele>
        <time>2016-04-23T09:35:55Z</time>
      </trkpt>
      <trkpt lat="43.29553" lon="5.36361">
        <ele>3.5</ele>
        <time>2016-04-23T09:36:10Z</time>
      </trkpt>
      <trkpt lat="43.29553" lon="5.36361">
        <ele>3.98</ele>
        <time>2016-04-23T09:36:11Z</time>
      </trkpt>
      <trkpt lat="43.2956" lon="5.36371">
        <ele>5.91</ele>
        <time>2016-04-23T09:36:29Z</time>
      </trkpt>
      <trkpt lat="43.29562" lon="5.36371">
        <ele>5.91</ele>
        <time>2016-04-23T09:36:31Z</time>
      </trkpt>
      <trkpt lat="43.29563" lon="5.36363">
        <ele>7.35</ele>
        <time>2016-04-23T09:36:44Z</time>
      </trkpt>
      <trkpt lat="43.29558" lon="5.36354">
        <ele>14.08</ele>
        <time>2016-04-23T09:36:58Z</time>
      </trkpt>
      <trkpt lat="43.29558" lon="5.36335">
        <ele>16.48</ele>
        <time>2016-04-23T09:37:12Z</time>
      </trkpt>
      <trkpt lat="43.29563" lon="5.36325">
        <ele>16.48</ele>
        <time>2016-04-23T09:37:23Z</time>
      </trkpt>
      <trkpt lat="43.29566" lon="5.36323">
        <ele>16</ele>
        <time>2016-04-23T09:37:27Z</time>
      </trkpt>
      <trkpt lat="43.29565" lon="5.36313">
        <ele>16</ele>
        <time>2016-04-23T09:37:34Z</time>
      </trkpt>
      <trkpt lat="43.29561" lon="5.3629">
        <ele>17.44</ele>
        <time>2016-04-23T09:37:51Z</time>
      </trkpt>
      <trkpt lat="43.29558" lon="5.36274">
        <ele>16.96</ele>
        <time>2016-04-23T09:38:08Z</time>
      </trkpt>
      <trkpt lat="43.29552" lon="5.36243">
        <ele>13.6</ele>
        <time>2016-04-23T09:38:27Z</time>
      </trkpt>
      <trkpt lat="43.29549" lon="5.36234">
        <ele>12.15</ele>
        <time>2016-04-23T09:38:33Z</time>
      </trkpt>
      <trkpt lat="43.29548" lon="5.3623">
        <ele>11.67</ele>
        <time>2016-04-23T09:38:37Z</time>
      </trkpt>
      <trkpt lat="43.29548" lon="5.36228">
        <ele>8.79</ele>
        <time>2016-04-23T09:38:51Z</time>
      </trkpt>
      <trkpt lat="43.29545" lon="5.36224">
        <ele>8.79</ele>
        <time>2016-04-23T09:39:08Z</time>
      </trkpt>
      <trkpt lat="43.29541" lon="5.36219">
        <ele>8.79</ele>
        <time>2016-04-23T09:39:25Z</time>
      </trkpt>
      <trkpt lat="43.29534" lon="5.36219">
        <ele>8.79</ele>
        <time>2016-04-23T09:59:43Z</time>
      </trkpt>
      <trkpt lat="43.2954" lon="5.36193">
        <ele>16.48</ele>
        <time>2016-04-23T09:59:56Z</time>
      </trkpt>
      <trkpt lat="43.2954" lon="5.3619">
        <ele>19.36</ele>
        <time>2016-04-23T10:00:09Z</time>
      </trkpt>
      <trkpt lat="43.29531" lon="5.36188">
        <ele>20.32</ele>
        <time>2016-04-23T10:00:26Z</time>
      </trkpt>
      <trkpt lat="43.29514" lon="5.36192">
        <ele>24.17</ele>
        <time>2016-04-23T10:00:41Z</time>
      </trkpt>
      <trkpt lat="43.29499" lon="5.36199">
        <ele>24.65</ele>
        <time>2016-04-23T10:00:58Z</time>
      </trkpt>
      <trkpt lat="43.29498" lon="5.36212">
        <ele>26.09</ele>
        <time>2016-04-23T10:01:13Z</time>
      </trkpt>
      <trkpt lat="43.29499" lon="5.36214">
        <ele>24.65</ele>
        <time>2016-04-23T10:01:28Z</time>
      </trkpt>
      <trkpt lat="43.29503" lon="5.36223">
        <ele>23.21</ele>
        <time>2016-04-23T10:01:50Z</time>
      </trkpt>
      <trkpt lat="43.29509" lon="5.36237">
        <ele>22.25</ele>
        <time>2016-04-23T10:02:04Z</time>
      </trkpt>
      <trkpt lat="43.29512" lon="5.36255">
        <ele>23.21</ele>
        <time>2016-04-23T10:02:20Z</time>
      </trkpt>
      <trkpt lat="43.2951" lon="5.36258">
        <ele>22.25</ele>
        <time>2016-04-23T10:02:30Z</time>
      </trkpt>
      <trkpt lat="43.29503" lon="5.36263">
        <ele>20.81</ele>
        <time>2016-04-23T10:02:39Z</time>
      </trkpt>
      <trkpt lat="43.29502" lon="5.36269">
        <ele>19.84</ele>
        <time>2016-04-23T10:02:43Z</time>
      </trkpt>
      <trkpt lat="43.29491" lon="5.36278">
        <ele>21.29</ele>
        <time>2016-04-23T10:02:57Z</time>
      </trkpt>
      <trkpt lat="43.29478" lon="5.36284">
        <ele>20.81</ele>
        <time>2016-04-23T10:03:12Z</time>
      </trkpt>
      <trkpt lat="43.29478" lon="5.36289">
        <ele>35.71</ele>
        <time>2016-04-23T10:04:31Z</time>
      </trkpt>
      <trkpt lat="43.2947" lon="5.36292">
        <ele>33.3</ele>
        <time>2016-04-23T10:04:49Z</time>
      </trkpt>
      <trkpt lat="43.2947" lon="5.36291">
        <ele>35.23</ele>
        <time>2016-04-23T10:05:08Z</time>
      </trkpt>
      <trkpt lat="43.29472" lon="5.36292">
        <ele>36.19</ele>
        <time>2016-04-23T10:05:31Z</time>
      </trkpt>
      <trkpt lat="43.29474" lon="5.36294">
        <ele>38.59</ele>
        <time>2016-04-23T10:05:50Z</time>
      </trkpt>
      <trkpt lat="43.29473" lon="5.36294">
        <ele>38.59</ele>
        <time>2016-04-23T10:06:08Z</time>
      </trkpt>
      <trkpt lat="43.29466" lon="5.36292">
        <ele>38.11</ele>
        <time>2016-04-23T10:06:24Z</time>
      </trkpt>
      <trkpt lat="43.29465" lon="5.3629">
        <ele>36.67</ele>
        <time>2016-04-23T10:06:45Z</time>
      </trkpt>
      <trkpt lat="43.29465" lon="5.36281">
        <ele>39.07</ele>
        <time>2016-04-23T10:07:05Z</time>
      </trkpt>
      <trkpt lat="43.29464" lon="5.36281">
        <ele>37.63</ele>
        <time>2016-04-23T10:07:18Z</time>
      </trkpt>
      <trkpt lat="43.29465" lon="5.36281">
        <ele>36.19</ele>
        <time>2016-04-23T10:07:40Z</time>
      </trkpt>
      <trkpt lat="43.29464" lon="5.36289">
        <ele>34.74</ele>
        <time>2016-04-23T10:08:06Z</time>
      </trkpt>
      <trkpt lat="43.29464" lon="5.3629">
        <ele>34.26</ele>
        <time>2016-04-23T10:08:29Z</time>
      </trkpt>
      <trkpt lat="43.29472" lon="5.36289">
        <ele>36.67</ele>
        <time>2016-04-23T10:08:45Z</time>
      </trkpt>
      <trkpt lat="43.29501" lon="5.3629">
        <ele>37.63</ele>
        <time>2016-04-23T10:09:56Z</time>
      </trkpt>
      <trkpt lat="43.29479" lon="5.36285">
        <ele>18.88</ele>
        <time>2016-04-23T10:10:01Z</time>
      </trkpt>
      <trkpt lat="43.29485" lon="5.36279">
        <ele>22.73</ele>
        <time>2016-04-23T10:10:13Z</time>
      </trkpt>
      <trkpt lat="43.29487" lon="5.3628">
        <ele>21.29</ele>
        <time>2016-04-23T10:10:24Z</time>
      </trkpt>
      <trkpt lat="43.29496" lon="5.3628">
        <ele>23.69</ele>
        <time>2016-04-23T10:10:38Z</time>
      </trkpt>
      <trkpt lat="43.29499" lon="5.36272">
        <ele>23.69</ele>
        <time>2016-04-23T10:10:44Z</time>
      </trkpt>
      <trkpt lat="43.29501" lon="5.36267">
        <ele>22.73</ele>
        <time>2016-04-23T10:11:03Z</time>
      </trkpt>
      <trkpt lat="43.29502" lon="5.36267">
        <ele>22.73</ele>
        <time>2016-04-23T10:11:04Z</time>
      </trkpt>
      <trkpt lat="43.2951" lon="5.36262">
        <ele>24.17</ele>
        <time>2016-04-23T10:11:20Z</time>
      </trkpt>
      <trkpt lat="43.29514" lon="5.36251">
        <ele>25.61</ele>
        <time>2016-04-23T10:11:35Z</time>
      </trkpt>
      <trkpt lat="43.29509" lon="5.36238">
        <ele>27.05</ele>
        <time>2016-04-23T10:11:48Z</time>
      </trkpt>
      <trkpt lat="43.29503" lon="5.36225">
        <ele>28.02</ele>
        <time>2016-04-23T10:12:01Z</time>
      </trkpt>
      <trkpt lat="43.29498" lon="5.36208">
        <ele>27.05</ele>
        <time>2016-04-23T10:12:18Z</time>
      </trkpt>
      <trkpt lat="43.29499" lon="5.36207">
        <ele>23.21</ele>
        <time>2016-04-23T10:12:31Z</time>
      </trkpt>
      <trkpt lat="43.29495" lon="5.36204">
        <ele>21.29</ele>
        <time>2016-04-23T10:12:39Z</time>
      </trkpt>
      <trkpt lat="43.29489" lon="5.36207">
        <ele>20.32</ele>
        <time>2016-04-23T10:12:53Z</time>
      </trkpt>
      <trkpt lat="43.2949" lon="5.36209">
        <ele>21.29</ele>
        <time>2016-04-23T10:13:07Z</time>
      </trkpt>
      <trkpt lat="43.29489" lon="5.36211">
        <ele>21.29</ele>
        <time>2016-04-23T10:13:11Z</time>
      </trkpt>
      <trkpt lat="43.29494" lon="5.36211">
        <ele>20.81</ele>
        <time>2016-04-23T10:13:25Z</time>
      </trkpt>
      <trkpt lat="43.29495" lon="5.36206">
        <ele>19.36</ele>
        <time>2016-04-23T10:13:51Z</time>
      </trkpt>
      <trkpt lat="43.29494" lon="5.36207">
        <ele>19.36</ele>
        <time>2016-04-23T10:14:18Z</time>
      </trkpt>
      <trkpt lat="43.29495" lon="5.36206">
        <ele>19.84</ele>
        <time>2016-04-23T10:14:39Z</time>
      </trkpt>
      <trkpt lat="43.29496" lon="5.36206">
        <ele>19.36</ele>
        <time>2016-04-23T10:15:02Z</time>
      </trkpt>
      <trkpt lat="43.29496" lon="5.36204">
        <ele>17.44</ele>
        <time>2016-04-23T10:15:21Z</time>
      </trkpt>
      <trkpt lat="43.29496" lon="5.36202">
        <ele>16</ele>
        <time>2016-04-23T10:15:43Z</time>
      </trkpt>
      <trkpt lat="43.29497" lon="5.36199">
        <ele>14.08</ele>
        <time>2016-04-23T10:16:07Z</time>
      </trkpt>
      <trkpt lat="43.29498" lon="5.36204">
        <ele>16.96</ele>
        <time>2016-04-23T10:16:31Z</time>
      </trkpt>
      <trkpt lat="43.29498" lon="5.36204">
        <ele>16.96</ele>
        <time>2016-04-23T10:16:59Z</time>
      </trkpt>
      <trkpt lat="43.29497" lon="5.36205">
        <ele>16.96</ele>
        <time>2016-04-23T10:17:27Z</time>
      </trkpt>
      <trkpt lat="43.29496" lon="5.36207">
        <ele>17.44</ele>
        <time>2016-04-23T10:17:56Z</time>
      </trkpt>
      <trkpt lat="43.29495" lon="5.36207">
        <ele>16</ele>
        <time>2016-04-23T10:18:25Z</time>
      </trkpt>
      <trkpt lat="43.29494" lon="5.3621">
        <ele>15.52</ele>
        <time>2016-04-23T10:18:43Z</time>
      </trkpt>
      <trkpt lat="43.29495" lon="5.36209">
        <ele>16</ele>
        <time>2016-04-23T10:19:08Z</time>
      </trkpt>
      <trkpt lat="43.29497" lon="5.36209">
        <ele>16</ele>
        <time>2016-04-23T10:19:34Z</time>
      </trkpt>
      <trkpt lat="43.295" lon="5.3621">
        <ele>14.08</ele>
        <time>2016-04-23T10:20:01Z</time>
      </trkpt>
      <trkpt lat="43.295" lon="5.36208">
        <ele>14.08</ele>
        <time>2016-04-23T10:20:27Z</time>
      </trkpt>
      <trkpt lat="43.29501" lon="5.36201">
        <ele>10.71</ele>
        <time>2016-04-23T10:21:02Z</time>
      </trkpt>
      <trkpt lat="43.29501" lon="5.36205">
        <ele>12.15</ele>
        <time>2016-04-23T10:21:29Z</time>
      </trkpt>
      <trkpt lat="43.29499" lon="5.36202">
        <ele>12.15</ele>
        <time>2016-04-23T10:21:59Z</time>
      </trkpt>
      <trkpt lat="43.29498" lon="5.362">
        <ele>10.23</ele>
        <time>2016-04-23T10:22:31Z</time>
      </trkpt>
      <trkpt lat="43.29499" lon="5.36205">
        <ele>13.12</ele>
        <time>2016-04-23T10:22:59Z</time>
      </trkpt>
      <trkpt lat="43.29499" lon="5.36205">
        <ele>13.6</ele>
        <time>2016-04-23T10:23:25Z</time>
      </trkpt>
      <trkpt lat="43.295" lon="5.36209">
        <ele>16</ele>
        <time>2016-04-23T10:23:50Z</time>
      </trkpt>
      <trkpt lat="43.29499" lon="5.36208">
        <ele>16.48</ele>
        <time>2016-04-23T10:24:14Z</time>
      </trkpt>
      <trkpt lat="43.29497" lon="5.36204">
        <ele>10.23</ele>
        <time>2016-04-23T10:24:42Z</time>
      </trkpt>
      <trkpt lat="43.29495" lon="5.36204">
        <ele>6.39</ele>
        <time>2016-04-23T10:25:12Z</time>
      </trkpt>
      <trkpt lat="43.29496" lon="5.36207">
        <ele>12.63</ele>
        <time>2016-04-23T10:25:43Z</time>
      </trkpt>
      <trkpt lat="43.29497" lon="5.36206">
        <ele>16.96</ele>
        <time>2016-04-23T10:26:11Z</time>
      </trkpt>
      <trkpt lat="43.29497" lon="5.36205">
        <ele>17.44</ele>
        <time>2016-04-23T10:26:35Z</time>
      </trkpt>
      <trkpt lat="43.29497" lon="5.36206">
        <ele>18.4</ele>
        <time>2016-04-23T10:27:03Z</time>
      </trkpt>
      <trkpt lat="43.29497" lon="5.36207">
        <ele>17.92</ele>
        <time>2016-04-23T10:27:30Z</time>
      </trkpt>
      <trkpt lat="43.29497" lon="5.36204">
        <ele>15.52</ele>
        <time>2016-04-23T10:28:01Z</time>
      </trkpt>
      <trkpt lat="43.29499" lon="5.36204">
        <ele>14.08</ele>
        <time>2016-04-23T10:28:31Z</time>
      </trkpt>
      <trkpt lat="43.29498" lon="5.36206">
        <ele>15.04</ele>
        <time>2016-04-23T10:28:56Z</time>
      </trkpt>
      <trkpt lat="43.29499" lon="5.36203">
        <ele>14.56</ele>
        <time>2016-04-23T10:29:25Z</time>
      </trkpt>
      <trkpt lat="43.29498" lon="5.36205">
        <ele>13.6</ele>
        <time>2016-04-23T10:29:58Z</time>
      </trkpt>
      <trkpt lat="43.29497" lon="5.36207">
        <ele>11.67</ele>
        <time>2016-04-23T10:30:31Z</time>
      </trkpt>
      <trkpt lat="43.29498" lon="5.36205">
        <ele>12.63</ele>
        <time>2016-04-23T10:30:56Z</time>
      </trkpt>
      <trkpt lat="43.29496" lon="5.36208">
        <ele>14.56</ele>
        <time>2016-04-23T10:31:20Z</time>
      </trkpt>
      <trkpt lat="43.29497" lon="5.36206">
        <ele>15.04</ele>
        <time>2016-04-23T10:31:41Z</time>
      </trkpt>
      <trkpt lat="43.29496" lon="5.36204">
        <ele>15.52</ele>
        <time>2016-04-23T10:31:59Z</time>
      </trkpt>
      <trkpt lat="43.29496" lon="5.36208">
        <ele>16.48</ele>
        <time>2016-04-23T10:32:23Z</time>
      </trkpt>
      <trkpt lat="43.29496" lon="5.36209">
        <ele>16.48</ele>
        <time>2016-04-23T10:32:53Z</time>
      </trkpt>
      <trkpt lat="43.29496" lon="5.36212">
        <ele>17.92</ele>
        <time>2016-04-23T10:33:14Z</time>
      </trkpt>
      <trkpt lat="43.29496" lon="5.36212">
        <ele>17.92</ele>
        <time>2016-04-23T10:33:39Z</time>
      </trkpt>
      <trkpt lat="43.29496" lon="5.36211">
        <ele>17.92</ele>
        <time>2016-04-23T10:34:10Z</time>
      </trkpt>
      <trkpt lat="43.29497" lon="5.36209">
        <ele>15.52</ele>
        <time>2016-04-23T10:34:41Z</time>
      </trkpt>
      <trkpt lat="43.29496" lon="5.36209">
        <ele>18.4</ele>
        <time>2016-04-23T10:35:12Z</time>
      </trkpt>
      <trkpt lat="43.29496" lon="5.36212">
        <ele>18.88</ele>
        <time>2016-04-23T10:35:36Z</time>
      </trkpt>
      <trkpt lat="43.29497" lon="5.3621">
        <ele>17.92</ele>
        <time>2016-04-23T10:36:02Z</time>
      </trkpt>
      <trkpt lat="43.29496" lon="5.36209">
        <ele>16.96</ele>
        <time>2016-04-23T10:36:13Z</time>
      </trkpt>
      <trkpt lat="43.29495" lon="5.36204">
        <ele>16</ele>
        <time>2016-04-23T10:36:28Z</time>
      </trkpt>
      <trkpt lat="43.29494" lon="5.36209">
        <ele>18.88</ele>
        <time>2016-04-23T10:36:45Z</time>
      </trkpt>
      <trkpt lat="43.29493" lon="5.36207">
        <ele>19.36</ele>
        <time>2016-04-23T10:37:04Z</time>
      </trkpt>
      <trkpt lat="43.29494" lon="5.36205">
        <ele>19.84</ele>
        <time>2016-04-23T10:37:19Z</time>
      </trkpt>
      <trkpt lat="43.29497" lon="5.36201">
        <ele>19.84</ele>
        <time>2016-04-23T10:37:31Z</time>
      </trkpt>
      <trkpt lat="43.29499" lon="5.36198">
        <ele>19.36</ele>
        <time>2016-04-23T10:37:34Z</time>
      </trkpt>
      <trkpt lat="43.29504" lon="5.36183">
        <ele>19.84</ele>
        <time>2016-04-23T10:37:51Z</time>
      </trkpt>
      <trkpt lat="43.29504" lon="5.36185">
        <ele>19.84</ele>
        <time>2016-04-23T10:38:02Z</time>
      </trkpt>
      <trkpt lat="43.29504" lon="5.36184">
        <ele>19.84</ele>
        <time>2016-04-23T10:38:14Z</time>
      </trkpt>
      <trkpt lat="43.29509" lon="5.36175">
        <ele>19.84</ele>
        <time>2016-04-23T10:38:22Z</time>
      </trkpt>
      <trkpt lat="43.29516" lon="5.36154">
        <ele>20.81</ele>
        <time>2016-04-23T10:38:39Z</time>
      </trkpt>
      <trkpt lat="43.29518" lon="5.36152">
        <ele>20.32</ele>
        <time>2016-04-23T10:38:44Z</time>
      </trkpt>
      <trkpt lat="43.29532" lon="5.36142">
        <ele>18.4</ele>
        <time>2016-04-23T10:38:59Z</time>
      </trkpt>
      <trkpt lat="43.29547" lon="5.36132">
        <ele>17.44</ele>
        <time>2016-04-23T10:39:15Z</time>
      </trkpt>
      <trkpt lat="43.29563" lon="5.36118">
        <ele>16</ele>
        <time>2016-04-23T10:39:32Z</time>
      </trkpt>
      <trkpt lat="43.29564" lon="5.36117">
        <ele>16</ele>
        <time>2016-04-23T10:39:33Z</time>
      </trkpt>
      <trkpt lat="43.2957" lon="5.36106">
        <ele>19.36</ele>
        <time>2016-04-23T10:39:52Z</time>
      </trkpt>
      <trkpt lat="43.2957" lon="5.36108">
        <ele>19.36</ele>
        <time>2016-04-23T10:40:13Z</time>
      </trkpt>
      <trkpt lat="43.2957" lon="5.3611">
        <ele>19.84</ele>
        <time>2016-04-23T10:40:30Z</time>
      </trkpt>
      <trkpt lat="43.29574" lon="5.36117">
        <ele>21.77</ele>
        <time>2016-04-23T10:40:45Z</time>
      </trkpt>
      <trkpt lat="43.29573" lon="5.36127">
        <ele>24.17</ele>
        <time>2016-04-23T10:41:00Z</time>
      </trkpt>
      <trkpt lat="43.29577" lon="5.36136">
        <ele>26.57</ele>
        <time>2016-04-23T10:41:16Z</time>
      </trkpt>
      <trkpt lat="43.29578" lon="5.3614">
        <ele>26.09</ele>
        <time>2016-04-23T10:41:30Z</time>
      </trkpt>
      <trkpt lat="43.29575" lon="5.36151">
        <ele>26.09</ele>
        <time>2016-04-23T10:41:40Z</time>
      </trkpt>
      <trkpt lat="43.29578" lon="5.36176">
        <ele>25.61</ele>
        <time>2016-04-23T10:41:57Z</time>
      </trkpt>
      <trkpt lat="43.29579" lon="5.36178">
        <ele>25.61</ele>
        <time>2016-04-23T10:41:59Z</time>
      </trkpt>
      <trkpt lat="43.29588" lon="5.36183">
        <ele>25.61</ele>
        <time>2016-04-23T10:42:10Z</time>
      </trkpt>
      <trkpt lat="43.29599" lon="5.36193">
        <ele>27.05</ele>
        <time>2016-04-23T10:42:24Z</time>
      </trkpt>
      <trkpt lat="43.29609" lon="5.36192">
        <ele>26.57</ele>
        <time>2016-04-23T10:42:39Z</time>
      </trkpt>
      <trkpt lat="43.2961" lon="5.36194">
        <ele>26.09</ele>
        <time>2016-04-23T10:42:57Z</time>
      </trkpt>
      <trkpt lat="43.29611" lon="5.36194">
        <ele>23.21</ele>
        <time>2016-04-23T10:43:14Z</time>
      </trkpt>
      <trkpt lat="43.29612" lon="5.36196">
        <ele>22.73</ele>
        <time>2016-04-23T10:43:22Z</time>
      </trkpt>
      <trkpt lat="43.29613" lon="5.36204">
        <ele>21.77</ele>
        <time>2016-04-23T10:43:28Z</time>
      </trkpt>
      <trkpt lat="43.29619" lon="5.36211">
        <ele>22.25</ele>
        <time>2016-04-23T10:43:41Z</time>
      </trkpt>
      <trkpt lat="43.29627" lon="5.36227">
        <ele>23.69</ele>
        <time>2016-04-23T10:43:58Z</time>
      </trkpt>
      <trkpt lat="43.29636" lon="5.36243">
        <ele>24.65</ele>
        <time>2016-04-23T10:44:16Z</time>
      </trkpt>
      <trkpt lat="43.29633" lon="5.36243">
        <ele>23.69</ele>
        <time>2016-04-23T10:44:38Z</time>
      </trkpt>
      <trkpt lat="43.29631" lon="5.36243">
        <ele>23.69</ele>
        <time>2016-04-23T10:44:40Z</time>
      </trkpt>
      <trkpt lat="43.29621" lon="5.36242">
        <ele>22.25</ele>
        <time>2016-04-23T10:44:57Z</time>
      </trkpt>
      <trkpt lat="43.29598" lon="5.36241">
        <ele>20.81</ele>
        <time>2016-04-23T10:45:18Z</time>
      </trkpt>
      <trkpt lat="43.29588" lon="5.36238">
        <ele>20.81</ele>
        <time>2016-04-23T10:45:29Z</time>
      </trkpt>
      <trkpt lat="43.2958" lon="5.36218">
        <ele>21.29</ele>
        <time>2016-04-23T10:45:46Z</time>
      </trkpt>
      <trkpt lat="43.29576" lon="5.3622">
        <ele>22.73</ele>
        <time>2016-04-23T10:45:58Z</time>
      </trkpt>
      <trkpt lat="43.29573" lon="5.36221">
        <ele>23.21</ele>
        <time>2016-04-23T10:46:01Z</time>
      </trkpt>
      <trkpt lat="43.29564" lon="5.36224">
        <ele>24.17</ele>
        <time>2016-04-23T10:46:15Z</time>
      </trkpt>
      <trkpt lat="43.29561" lon="5.36226">
        <ele>24.65</ele>
        <time>2016-04-23T10:46:34Z</time>
      </trkpt>
      <trkpt lat="43.29547" lon="5.36232">
        <ele>24.65</ele>
        <time>2016-04-23T10:46:51Z</time>
      </trkpt>
      <trkpt lat="43.29545" lon="5.3623">
        <ele>24.65</ele>
        <time>2016-04-23T10:47:06Z</time>
      </trkpt>
      <trkpt lat="43.29531" lon="5.36235">
        <ele>25.13</ele>
        <time>2016-04-23T10:47:22Z</time>
      </trkpt>
      <trkpt lat="43.29529" lon="5.3624">
        <ele>24.65</ele>
        <time>2016-04-23T10:47:38Z</time>
      </trkpt>
      <trkpt lat="43.29529" lon="5.3624">
        <ele>24.17</ele>
        <time>2016-04-23T10:47:40Z</time>
      </trkpt>
      <trkpt lat="43.2953" lon="5.36264">
        <ele>23.21</ele>
        <time>2016-04-23T10:47:58Z</time>
      </trkpt>
      <trkpt lat="43.29514" lon="5.36279">
        <ele>24.17</ele>
        <time>2016-04-23T10:48:18Z</time>
      </trkpt>
      <trkpt lat="43.29511" lon="5.36282">
        <ele>24.65</ele>
        <time>2016-04-23T10:48:35Z</time>
      </trkpt>
      <trkpt lat="43.29508" lon="5.36273">
        <ele>25.13</ele>
        <time>2016-04-23T10:48:54Z</time>
      </trkpt>
      <trkpt lat="43.29514" lon="5.36263">
        <ele>24.17</ele>
        <time>2016-04-23T10:49:09Z</time>
      </trkpt>
      <trkpt lat="43.29515" lon="5.36262">
        <ele>24.17</ele>
        <time>2016-04-23T10:49:10Z</time>
      </trkpt>
      <trkpt lat="43.29518" lon="5.36251">
        <ele>23.69</ele>
        <time>2016-04-23T10:49:23Z</time>
      </trkpt>
      <trkpt lat="43.29516" lon="5.36246">
        <ele>21.77</ele>
        <time>2016-04-23T10:49:42Z</time>
      </trkpt>
      <trkpt lat="43.29518" lon="5.36245">
        <ele>19.84</ele>
        <time>2016-04-23T10:50:12Z</time>
      </trkpt>
      <trkpt lat="43.29523" lon="5.36238">
        <ele>19.84</ele>
        <time>2016-04-23T10:50:20Z</time>
      </trkpt>
      <trkpt lat="43.29529" lon="5.36229">
        <ele>25.13</ele>
        <time>2016-04-23T10:50:36Z</time>
      </trkpt>
      <trkpt lat="43.29535" lon="5.36226">
        <ele>26.57</ele>
        <time>2016-04-23T10:50:51Z</time>
      </trkpt>
      <trkpt lat="43.2954" lon="5.36221">
        <ele>27.05</ele>
        <time>2016-04-23T10:50:59Z</time>
      </trkpt>
      <trkpt lat="43.29543" lon="5.3622">
        <ele>27.05</ele>
        <time>2016-04-23T10:51:02Z</time>
      </trkpt>
      <trkpt lat="43.29554" lon="5.36214">
        <ele>27.53</ele>
        <time>2016-04-23T10:51:19Z</time>
      </trkpt>
      <trkpt lat="43.29568" lon="5.36207">
        <ele>27.53</ele>
        <time>2016-04-23T10:51:35Z</time>
      </trkpt>
      <trkpt lat="43.29585" lon="5.36201">
        <ele>27.05</ele>
        <time>2016-04-23T10:51:53Z</time>
      </trkpt>
      <trkpt lat="43.29585" lon="5.36202">
        <ele>26.09</ele>
        <time>2016-04-23T10:52:08Z</time>
      </trkpt>
      <trkpt lat="43.29586" lon="5.362">
        <ele>26.09</ele>
        <time>2016-04-23T10:52:14Z</time>
      </trkpt>
      <trkpt lat="43.29572" lon="5.36199">
        <ele>25.13</ele>
        <time>2016-04-23T10:52:27Z</time>
      </trkpt>
      <trkpt lat="43.29549" lon="5.36204">
        <ele>23.69</ele>
        <time>2016-04-23T10:52:48Z</time>
      </trkpt>
      <trkpt lat="43.29551" lon="5.36201">
        <ele>24.17</ele>
        <time>2016-04-23T10:52:56Z</time>
      </trkpt>
      <trkpt lat="43.29571" lon="5.36191">
        <ele>24.65</ele>
        <time>2016-04-23T10:53:16Z</time>
      </trkpt>
      <trkpt lat="43.29587" lon="5.36178">
        <ele>24.65</ele>
        <time>2016-04-23T10:53:35Z</time>
      </trkpt>
      <trkpt lat="43.29603" lon="5.36161">
        <ele>24.17</ele>
        <time>2016-04-23T10:53:54Z</time>
      </trkpt>
      <trkpt lat="43.2962" lon="5.36147">
        <ele>22.25</ele>
        <time>2016-04-23T10:54:12Z</time>
      </trkpt>
      <trkpt lat="43.29634" lon="5.36134">
        <ele>21.77</ele>
        <time>2016-04-23T10:54:29Z</time>
      </trkpt>
      <trkpt lat="43.29646" lon="5.36119">
        <ele>20.81</ele>
        <time>2016-04-23T10:54:49Z</time>
      </trkpt>
      <trkpt lat="43.2966" lon="5.36105">
        <ele>20.81</ele>
        <time>2016-04-23T10:55:08Z</time>
      </trkpt>
      <trkpt lat="43.29672" lon="5.36096">
        <ele>18.88</ele>
        <time>2016-04-23T10:55:20Z</time>
      </trkpt>
      <trkpt lat="43.29668" lon="5.36095">
        <ele>20.32</ele>
        <time>2016-04-23T10:55:27Z</time>
      </trkpt>
      <trkpt lat="43.29655" lon="5.36106">
        <ele>20.32</ele>
        <time>2016-04-23T10:55:45Z</time>
      </trkpt>
      <trkpt lat="43.2966" lon="5.36101">
        <ele>20.81</ele>
        <time>2016-04-23T10:56:00Z</time>
      </trkpt>
      <trkpt lat="43.29664" lon="5.36094">
        <ele>21.29</ele>
        <time>2016-04-23T10:56:13Z</time>
      </trkpt>
      <trkpt lat="43.29664" lon="5.36094">
        <ele>21.29</ele>
        <time>2016-04-23T10:56:14Z</time>
      </trkpt>
      <trkpt lat="43.29676" lon="5.36093">
        <ele>19.36</ele>
        <time>2016-04-23T10:56:33Z</time>
      </trkpt>
      <trkpt lat="43.29679" lon="5.36091">
        <ele>19.84</ele>
        <time>2016-04-23T10:56:49Z</time>
      </trkpt>
      <trkpt lat="43.29685" lon="5.36083">
        <ele>21.77</ele>
        <time>2016-04-23T10:57:04Z</time>
      </trkpt>
      <trkpt lat="43.29687" lon="5.36071">
        <ele>24.65</ele>
        <time>2016-04-23T10:57:20Z</time>
      </trkpt>
      <trkpt lat="43.2968" lon="5.36061">
        <ele>25.61</ele>
        <time>2016-04-23T10:57:34Z</time>
      </trkpt>
      <trkpt lat="43.29673" lon="5.36063">
        <ele>26.09</ele>
        <time>2016-04-23T10:57:52Z</time>
      </trkpt>
      <trkpt lat="43.29658" lon="5.36073">
        <ele>27.05</ele>
        <time>2016-04-23T10:58:07Z</time>
      </trkpt>
      <trkpt lat="43.29642" lon="5.36084">
        <ele>28.02</ele>
        <time>2016-04-23T10:58:22Z</time>
      </trkpt>
      <trkpt lat="43.29637" lon="5.36098">
        <ele>26.09</ele>
        <time>2016-04-23T10:58:36Z</time>
      </trkpt>
      <trkpt lat="43.29641" lon="5.36107">
        <ele>25.61</ele>
        <time>2016-04-23T10:58:56Z</time>
      </trkpt>
      <trkpt lat="43.29642" lon="5.36116">
        <ele>24.17</ele>
        <time>2016-04-23T10:59:09Z</time>
      </trkpt>
      <trkpt lat="43.29647" lon="5.36128">
        <ele>21.29</ele>
        <time>2016-04-23T10:59:27Z</time>
      </trkpt>
      <trkpt lat="43.29651" lon="5.36138">
        <ele>20.81</ele>
        <time>2016-04-23T10:59:56Z</time>
      </trkpt>
      <trkpt lat="43.29653" lon="5.36144">
        <ele>19.36</ele>
        <time>2016-04-23T11:00:07Z</time>
      </trkpt>
      <trkpt lat="43.29663" lon="5.36141">
        <ele>19.36</ele>
        <time>2016-04-23T11:00:23Z</time>
      </trkpt>
      <trkpt lat="43.29683" lon="5.36134">
        <ele>21.29</ele>
        <time>2016-04-23T11:00:44Z</time>
      </trkpt>
      <trkpt lat="43.29697" lon="5.36119">
        <ele>22.25</ele>
        <time>2016-04-23T11:01:04Z</time>
      </trkpt>
      <trkpt lat="43.29695" lon="5.36097">
        <ele>23.69</ele>
        <time>2016-04-23T11:01:27Z</time>
      </trkpt>
      <trkpt lat="43.29682" lon="5.36077">
        <ele>20.32</ele>
        <time>2016-04-23T11:01:50Z</time>
      </trkpt>
      <trkpt lat="43.29675" lon="5.36054">
        <ele>9.75</ele>
        <time>2016-04-23T11:02:09Z</time>
      </trkpt>
      <trkpt lat="43.29674" lon="5.36054">
        <ele>6.39</ele>
        <time>2016-04-23T11:02:25Z</time>
      </trkpt>
      <trkpt lat="43.29668" lon="5.36058">
        <ele>4.94</ele>
        <time>2016-04-23T11:02:37Z</time>
      </trkpt>
      <trkpt lat="43.2966" lon="5.36064">
        <ele>5.91</ele>
        <time>2016-04-23T11:02:50Z</time>
      </trkpt>
      <trkpt lat="43.29648" lon="5.36076">
        <ele>8.79</ele>
        <time>2016-04-23T11:03:05Z</time>
      </trkpt>
      <trkpt lat="43.29642" lon="5.36091">
        <ele>11.67</ele>
        <time>2016-04-23T11:03:19Z</time>
      </trkpt>
      <trkpt lat="43.2964" lon="5.36103">
        <ele>11.19</ele>
        <time>2016-04-23T11:03:33Z</time>
      </trkpt>
      <trkpt lat="43.29644" lon="5.36115">
        <ele>9.75</ele>
        <time>2016-04-23T11:03:47Z</time>
      </trkpt>
      <trkpt lat="43.29646" lon="5.36126">
        <ele>9.27</ele>
        <time>2016-04-23T11:04:00Z</time>
      </trkpt>
      <trkpt lat="43.29655" lon="5.3614">
        <ele>8.31</ele>
        <time>2016-04-23T11:04:15Z</time>
      </trkpt>
      <trkpt lat="43.29663" lon="5.36139">
        <ele>9.27</ele>
        <time>2016-04-23T11:04:34Z</time>
      </trkpt>
      <trkpt lat="43.29695" lon="5.36078">
        <ele>14.08</ele>
        <time>2016-04-23T11:05:49Z</time>
      </trkpt>
      <trkpt lat="43.29698" lon="5.36058">
        <ele>12.15</ele>
        <time>2016-04-23T11:06:02Z</time>
      </trkpt>
      <trkpt lat="43.29691" lon="5.36056">
        <ele>8.31</ele>
        <time>2016-04-23T11:06:16Z</time>
      </trkpt>
      <trkpt lat="43.29695" lon="5.36056">
        <ele>8.31</ele>
        <time>2016-04-23T11:06:22Z</time>
      </trkpt>
      <trkpt lat="43.29688" lon="5.36041">
        <ele>6.39</ele>
        <time>2016-04-23T11:06:37Z</time>
      </trkpt>
      <trkpt lat="43.2969" lon="5.3604">
        <ele>5.91</ele>
        <time>2016-04-23T11:06:44Z</time>
      </trkpt>
      <trkpt lat="43.29693" lon="5.36018">
        <ele>9.27</ele>
        <time>2016-04-23T11:07:00Z</time>
      </trkpt>
      <trkpt lat="43.29693" lon="5.35997">
        <ele>7.83</ele>
        <time>2016-04-23T11:07:18Z</time>
      </trkpt>
      <trkpt lat="43.2969" lon="5.35979">
        <ele>7.83</ele>
        <time>2016-04-23T11:07:34Z</time>
      </trkpt>
      <trkpt lat="43.29689" lon="5.3597">
        <ele>7.35</ele>
        <time>2016-04-23T11:07:52Z</time>
      </trkpt>
      <trkpt lat="43.29689" lon="5.35968">
        <ele>7.35</ele>
        <time>2016-04-23T11:08:09Z</time>
      </trkpt>
      <trkpt lat="43.2969" lon="5.35968">
        <ele>5.91</ele>
        <time>2016-04-23T11:08:43Z</time>
      </trkpt>
      <trkpt lat="43.29688" lon="5.35969">
        <ele>6.39</ele>
        <time>2016-04-23T11:09:06Z</time>
      </trkpt>
      <trkpt lat="43.29687" lon="5.35968">
        <ele>6.39</ele>
        <time>2016-04-23T11:09:30Z</time>
      </trkpt>
      <trkpt lat="43.29686" lon="5.35968">
        <ele>6.87</ele>
        <time>2016-04-23T11:09:53Z</time>
      </trkpt>
      <trkpt lat="43.29686" lon="5.35968">
        <ele>5.91</ele>
        <time>2016-04-23T11:10:31Z</time>
      </trkpt>
      <trkpt lat="43.29686" lon="5.35969">
        <ele>5.42</ele>
        <time>2016-04-23T11:10:53Z</time>
      </trkpt>
      <trkpt lat="43.29684" lon="5.35976">
        <ele>5.91</ele>
        <time>2016-04-23T11:11:09Z</time>
      </trkpt>
      <trkpt lat="43.29682" lon="5.35987">
        <ele>5.91</ele>
        <time>2016-04-23T11:11:22Z</time>
      </trkpt>
      <trkpt lat="43.29681" lon="5.35993">
        <ele>5.91</ele>
        <time>2016-04-23T11:11:27Z</time>
      </trkpt>
      <trkpt lat="43.2968" lon="5.3601">
        <ele>5.91</ele>
        <time>2016-04-23T11:11:43Z</time>
      </trkpt>
      <trkpt lat="43.29684" lon="5.36021">
        <ele>5.91</ele>
        <time>2016-04-23T11:11:54Z</time>
      </trkpt>
      <trkpt lat="43.29692" lon="5.36039">
        <ele>6.39</ele>
        <time>2016-04-23T11:12:12Z</time>
      </trkpt>
      <trkpt lat="43.29698" lon="5.36055">
        <ele>7.83</ele>
        <time>2016-04-23T11:12:28Z</time>
      </trkpt>
      <trkpt lat="43.29704" lon="5.36074">
        <ele>9.27</ele>
        <time>2016-04-23T11:12:45Z</time>
      </trkpt>
      <trkpt lat="43.29711" lon="5.36093">
        <ele>9.75</ele>
        <time>2016-04-23T11:13:01Z</time>
      </trkpt>
      <trkpt lat="43.29718" lon="5.36111">
        <ele>8.79</ele>
        <time>2016-04-23T11:13:17Z</time>
      </trkpt>
      <trkpt lat="43.29721" lon="5.36123">
        <ele>9.75</ele>
        <time>2016-04-23T11:13:32Z</time>
      </trkpt>
      <trkpt lat="43.29727" lon="5.3613">
        <ele>17.44</ele>
        <time>2016-04-23T11:13:44Z</time>
      </trkpt>
      <trkpt lat="43.29736" lon="5.36149">
        <ele>20.32</ele>
        <time>2016-04-23T11:14:02Z</time>
      </trkpt>
      <trkpt lat="43.29742" lon="5.36165">
        <ele>19.84</ele>
        <time>2016-04-23T11:14:18Z</time>
      </trkpt>
      <trkpt lat="43.29751" lon="5.36193">
        <ele>14.56</ele>
        <time>2016-04-23T11:14:35Z</time>
      </trkpt>
      <trkpt lat="43.29756" lon="5.36207">
        <ele>10.71</ele>
        <time>2016-04-23T11:14:45Z</time>
      </trkpt>
      <trkpt lat="43.29754" lon="5.36213">
        <ele>9.27</ele>
        <time>2016-04-23T11:14:51Z</time>
      </trkpt>
      <trkpt lat="43.2974" lon="5.36224">
        <ele>7.83</ele>
        <time>2016-04-23T11:15:09Z</time>
      </trkpt>
      <trkpt lat="43.29725" lon="5.36234">
        <ele>6.87</ele>
        <time>2016-04-23T11:15:27Z</time>
      </trkpt>
      <trkpt lat="43.29711" lon="5.36241">
        <ele>3.5</ele>
        <time>2016-04-23T11:15:42Z</time>
      </trkpt>
      <trkpt lat="43.29698" lon="5.36248">
        <ele>2.54</ele>
        <time>2016-04-23T11:15:57Z</time>
      </trkpt>
      <trkpt lat="43.29691" lon="5.36253">
        <ele>4.46</ele>
        <time>2016-04-23T11:16:17Z</time>
      </trkpt>
      <trkpt lat="43.29691" lon="5.36252">
        <ele>4.94</ele>
        <time>2016-04-23T11:16:45Z</time>
      </trkpt>
      <trkpt lat="43.29687" lon="5.36252">
        <ele>4.46</ele>
        <time>2016-04-23T11:17:02Z</time>
      </trkpt>
      <trkpt lat="43.29686" lon="5.36251">
        <ele>3.5</ele>
        <time>2016-04-23T11:17:04Z</time>
      </trkpt>
      <trkpt lat="43.29683" lon="5.36251">
        <ele>2.54</ele>
        <time>2016-04-23T11:17:08Z</time>
      </trkpt>
      <trkpt lat="43.29667" lon="5.36246">
        <ele>1.58</ele>
        <time>2016-04-23T11:17:25Z</time>
      </trkpt>
      <trkpt lat="43.29661" lon="5.36254">
        <ele>5.42</ele>
        <time>2016-04-23T11:17:41Z</time>
      </trkpt>
      <trkpt lat="43.29663" lon="5.36258">
        <ele>5.91</ele>
        <time>2016-04-23T11:17:54Z</time>
      </trkpt>
      <trkpt lat="43.29663" lon="5.36258">
        <ele>6.39</ele>
        <time>2016-04-23T11:18:17Z</time>
      </trkpt>
      <trkpt lat="43.29668" lon="5.36257">
        <ele>6.39</ele>
        <time>2016-04-23T11:18:21Z</time>
      </trkpt>
      <trkpt lat="43.29689" lon="5.36261">
        <ele>6.87</ele>
        <time>2016-04-23T11:18:39Z</time>
      </trkpt>
      <trkpt lat="43.29695" lon="5.36264">
        <ele>6.87</ele>
        <time>2016-04-23T11:18:46Z</time>
      </trkpt>
      <trkpt lat="43.29713" lon="5.36269">
        <ele>8.79</ele>
        <time>2016-04-23T11:19:06Z</time>
      </trkpt>
      <trkpt lat="43.29732" lon="5.36275">
        <ele>7.83</ele>
        <time>2016-04-23T11:19:25Z</time>
      </trkpt>
      <trkpt lat="43.29749" lon="5.3628">
        <ele>6.87</ele>
        <time>2016-04-23T11:19:43Z</time>
      </trkpt>
      <trkpt lat="43.29767" lon="5.36284">
        <ele>6.87</ele>
        <time>2016-04-23T11:20:01Z</time>
      </trkpt>
      <trkpt lat="43.29783" lon="5.3629">
        <ele>5.91</ele>
        <time>2016-04-23T11:20:19Z</time>
      </trkpt>
      <trkpt lat="43.29801" lon="5.36293">
        <ele>5.42</ele>
        <time>2016-04-23T11:20:38Z</time>
      </trkpt>
      <trkpt lat="43.29818" lon="5.363">
        <ele>4.94</ele>
        <time>2016-04-23T11:20:54Z</time>
      </trkpt>
      <trkpt lat="43.29838" lon="5.36303">
        <ele>4.94</ele>
        <time>2016-04-23T11:21:13Z</time>
      </trkpt>
      <trkpt lat="43.29845" lon="5.36301">
        <ele>4.46</ele>
        <time>2016-04-23T11:21:22Z</time>
      </trkpt>
      <trkpt lat="43.29851" lon="5.36291">
        <ele>5.42</ele>
        <time>2016-04-23T11:21:35Z</time>
      </trkpt>
      <trkpt lat="43.29851" lon="5.36289">
        <ele>6.39</ele>
        <time>2016-04-23T11:21:52Z</time>
      </trkpt>
      <trkpt lat="43.29849" lon="5.36292">
        <ele>8.79</ele>
        <time>2016-04-23T11:22:17Z</time>
      </trkpt>
      <trkpt lat="43.2985" lon="5.36292">
        <ele>7.83</ele>
        <time>2016-04-23T11:22:30Z</time>
      </trkpt>
      <trkpt lat="43.29848" lon="5.3629">
        <ele>6.87</ele>
        <time>2016-04-23T11:22:54Z</time>
      </trkpt>
      <trkpt lat="43.29847" lon="5.3629">
        <ele>6.39</ele>
        <time>2016-04-23T11:23:50Z</time>
      </trkpt>
      <trkpt lat="43.29848" lon="5.3629">
        <ele>8.31</ele>
        <time>2016-04-23T11:24:16Z</time>
      </trkpt>
      <trkpt lat="43.2985" lon="5.36289">
        <ele>8.31</ele>
        <time>2016-04-23T11:24:40Z</time>
      </trkpt>
      <trkpt lat="43.29851" lon="5.36291">
        <ele>4.46</ele>
        <time>2016-04-23T11:25:03Z</time>
      </trkpt>
      <trkpt lat="43.2985" lon="5.36291">
        <ele>6.39</ele>
        <time>2016-04-23T11:25:22Z</time>
      </trkpt>
      <trkpt lat="43.2985" lon="5.36292">
        <ele>7.35</ele>
        <time>2016-04-23T11:25:46Z</time>
      </trkpt>
      <trkpt lat="43.29849" lon="5.3629">
        <ele>6.39</ele>
        <time>2016-04-23T11:26:11Z</time>
      </trkpt>
      <trkpt lat="43.29849" lon="5.3629">
        <ele>5.42</ele>
        <time>2016-04-23T11:26:36Z</time>
      </trkpt>
      <trkpt lat="43.2985" lon="5.3629">
        <ele>5.42</ele>
        <time>2016-04-23T11:26:57Z</time>
      </trkpt>
      <trkpt lat="43.29849" lon="5.36288">
        <ele>8.79</ele>
        <time>2016-04-23T11:27:22Z</time>
      </trkpt>
      <trkpt lat="43.2985" lon="5.3629">
        <ele>7.35</ele>
        <time>2016-04-23T11:27:45Z</time>
      </trkpt>
      <trkpt lat="43.29849" lon="5.3629">
        <ele>7.35</ele>
        <time>2016-04-23T11:28:17Z</time>
      </trkpt>
      <trkpt lat="43.29849" lon="5.3629">
        <ele>7.83</ele>
        <time>2016-04-23T11:28:43Z</time>
      </trkpt>
      <trkpt lat="43.2985" lon="5.3629">
        <ele>7.83</ele>
        <time>2016-04-23T11:29:04Z</time>
      </trkpt>
      <trkpt lat="43.2985" lon="5.36291">
        <ele>8.31</ele>
        <time>2016-04-23T11:29:34Z</time>
      </trkpt>
      <trkpt lat="43.29853" lon="5.3629">
        <ele>7.35</ele>
        <time>2016-04-23T11:29:52Z</time>
      </trkpt>
      <trkpt lat="43.29854" lon="5.36292">
        <ele>6.87</ele>
        <time>2016-04-23T11:30:05Z</time>
      </trkpt>
      <trkpt lat="43.29853" lon="5.36291">
        <ele>5.91</ele>
        <time>2016-04-23T11:30:21Z</time>
      </trkpt>
      <trkpt lat="43.29852" lon="5.36294">
        <ele>6.39</ele>
        <time>2016-04-23T11:30:31Z</time>
      </trkpt>
      <trkpt lat="43.29855" lon="5.36295">
        <ele>4.94</ele>
        <time>2016-04-23T11:30:43Z</time>
      </trkpt>
      <trkpt lat="43.29855" lon="5.36295">
        <ele>5.42</ele>
        <time>2016-04-23T11:31:03Z</time>
      </trkpt>
      <trkpt lat="43.29857" lon="5.36295">
        <ele>5.42</ele>
        <time>2016-04-23T11:31:22Z</time>
      </trkpt>
      <trkpt lat="43.29857" lon="5.36292">
        <ele>4.94</ele>
        <time>2016-04-23T11:31:31Z</time>
      </trkpt>
      <trkpt lat="43.29854" lon="5.36284">
        <ele>4.94</ele>
        <time>2016-04-23T11:31:51Z</time>
      </trkpt>
      <trkpt lat="43.29852" lon="5.36286">
        <ele>3.98</ele>
        <time>2016-04-23T11:32:15Z</time>
      </trkpt>
      <trkpt lat="43.29852" lon="5.36288">
        <ele>4.94</ele>
        <time>2016-04-23T11:32:35Z</time>
      </trkpt>
      <trkpt lat="43.29852" lon="5.36292">
        <ele>4.94</ele>
        <time>2016-04-23T11:32:41Z</time>
      </trkpt>
      <trkpt lat="43.2986" lon="5.36312">
        <ele>4.94</ele>
        <time>2016-04-23T11:32:55Z</time>
      </trkpt>
      <trkpt lat="43.29861" lon="5.36313">
        <ele>4.94</ele>
        <time>2016-04-23T11:33:09Z</time>
      </trkpt>
      <trkpt lat="43.29861" lon="5.36315">
        <ele>6.39</ele>
        <time>2016-04-23T11:33:20Z</time>
      </trkpt>
      <trkpt lat="43.29856" lon="5.36315">
        <ele>6.39</ele>
        <time>2016-04-23T11:33:23Z</time>
      </trkpt>
      <trkpt lat="43.29853" lon="5.36315">
        <ele>6.39</ele>
        <time>2016-04-23T11:33:24Z</time>
      </trkpt>
      <trkpt lat="43.29851" lon="5.36314">
        <ele>5.91</ele>
        <time>2016-04-23T11:33:25Z</time>
      </trkpt>
      <trkpt lat="43.29805" lon="5.36303">
        <ele>6.39</ele>
        <time>2016-04-23T11:33:45Z</time>
      </trkpt>
      <trkpt lat="43.2976" lon="5.3629">
        <ele>7.35</ele>
        <time>2016-04-23T11:34:04Z</time>
      </trkpt>
      <trkpt lat="43.29705" lon="5.36272">
        <ele>8.31</ele>
        <time>2016-04-23T11:34:23Z</time>
      </trkpt>
      <trkpt lat="43.29637" lon="5.36254">
        <ele>6.87</ele>
        <time>2016-04-23T11:34:39Z</time>
      </trkpt>
      <trkpt lat="43.29571" lon="5.36254">
        <ele>5.42</ele>
        <time>2016-04-23T11:34:54Z</time>
      </trkpt>
      <trkpt lat="43.29535" lon="5.36273">
        <ele>9.75</ele>
        <time>2016-04-23T11:35:03Z</time>
      </trkpt>
      <trkpt lat="43.29531" lon="5.36276">
        <ele>10.23</ele>
        <time>2016-04-23T11:35:04Z</time>
      </trkpt>
      <trkpt lat="43.29524" lon="5.36283">
        <ele>10.71</ele>
        <time>2016-04-23T11:35:06Z</time>
      </trkpt>
      <trkpt lat="43.29521" lon="5.36287">
        <ele>11.19</ele>
        <time>2016-04-23T11:35:07Z</time>
      </trkpt>
      <trkpt lat="43.2951" lon="5.36299">
        <ele>11.19</ele>
        <time>2016-04-23T11:35:10Z</time>
      </trkpt>
      <trkpt lat="43.29508" lon="5.36304">
        <ele>10.71</ele>
        <time>2016-04-23T11:35:11Z</time>
      </trkpt>
      <trkpt lat="43.29507" lon="5.36311">
        <ele>11.19</ele>
        <time>2016-04-23T11:35:12Z</time>
      </trkpt>
      <trkpt lat="43.29506" lon="5.36318">
        <ele>11.19</ele>
        <time>2016-04-23T11:35:13Z</time>
      </trkpt>
      <trkpt lat="43.29506" lon="5.36324">
        <ele>11.19</ele>
        <time>2016-04-23T11:35:14Z</time>
      </trkpt>
      <trkpt lat="43.29507" lon="5.36331">
        <ele>11.67</ele>
        <time>2016-04-23T11:35:15Z</time>
      </trkpt>
      <trkpt lat="43.29521" lon="5.36431">
        <ele>12.63</ele>
        <time>2016-04-23T11:35:32Z</time>
      </trkpt>
      <trkpt lat="43.29532" lon="5.36487">
        <ele>10.23</ele>
        <time>2016-04-23T11:35:46Z</time>
      </trkpt>
      <trkpt lat="43.29545" lon="5.3657">
        <ele>7.83</ele>
        <time>2016-04-23T11:36:04Z</time>
      </trkpt>
      <trkpt lat="43.29565" lon="5.36668">
        <ele>6.87</ele>
        <time>2016-04-23T11:36:23Z</time>
      </trkpt>
      <trkpt lat="43.2958" lon="5.36751">
        <ele>7.35</ele>
        <time>2016-04-23T11:36:41Z</time>
      </trkpt>
      <trkpt lat="43.29594" lon="5.36847">
        <ele>5.91</ele>
        <time>2016-04-23T11:37:02Z</time>
      </trkpt>
      <trkpt lat="43.29596" lon="5.36898">
        <ele>5.91</ele>
        <time>2016-04-23T11:37:14Z</time>
      </trkpt>
      <trkpt lat="43.29604" lon="5.36998">
        <ele>6.87</ele>
        <time>2016-04-23T11:37:34Z</time>
      </trkpt>
      <trkpt lat="43.29614" lon="5.371">
        <ele>8.79</ele>
        <time>2016-04-23T11:37:55Z</time>
      </trkpt>
      <trkpt lat="43.29626" lon="5.37208">
        <ele>8.31</ele>
        <time>2016-04-23T11:38:18Z</time>
      </trkpt>
      <trkpt lat="43.29628" lon="5.37306">
        <ele>7.83</ele>
        <time>2016-04-23T11:38:39Z</time>
      </trkpt>
      <trkpt lat="43.29612" lon="5.37366">
        <ele>9.75</ele>
        <time>2016-04-23T11:38:57Z</time>
      </trkpt>
      <trkpt lat="43.29604" lon="5.37389">
        <ele>10.23</ele>
        <time>2016-04-23T11:39:07Z</time>
      </trkpt>
      <trkpt lat="43.29603" lon="5.37391">
        <ele>10.23</ele>
        <time>2016-04-23T11:39:08Z</time>
      </trkpt>
      <trkpt lat="43.29602" lon="5.37392">
        <ele>10.23</ele>
        <time>2016-04-23T11:39:09Z</time>
      </trkpt>
      <trkpt lat="43.29601" lon="5.37394">
        <ele>10.23</ele>
        <time>2016-04-23T11:39:10Z</time>
      </trkpt>
      <trkpt lat="43.296" lon="5.37395">
        <ele>10.23</ele>
        <time>2016-04-23T11:39:11Z</time>
      </trkpt>
      <trkpt lat="43.29598" lon="5.37399">
        <ele>9.75</ele>
        <time>2016-04-23T11:39:26Z</time>
      </trkpt>
      <trkpt lat="43.29597" lon="5.37402">
        <ele>7.35</ele>
        <time>2016-04-23T11:39:53Z</time>
      </trkpt>
      <trkpt lat="43.29576" lon="5.3741">
        <ele>10.23</ele>
        <time>2016-04-23T11:40:06Z</time>
      </trkpt>
      <trkpt lat="43.29551" lon="5.3741">
        <ele>11.19</ele>
        <time>2016-04-23T11:40:21Z</time>
      </trkpt>
      <trkpt lat="43.29523" lon="5.37417">
        <ele>10.71</ele>
        <time>2016-04-23T11:40:34Z</time>
      </trkpt>
      <trkpt lat="43.29502" lon="5.37422">
        <ele>9.75</ele>
        <time>2016-04-23T11:40:42Z</time>
      </trkpt>
      <trkpt lat="43.29501" lon="5.37422">
        <ele>8.79</ele>
        <time>2016-04-23T11:40:45Z</time>
      </trkpt>
      <trkpt lat="43.29499" lon="5.37423">
        <ele>8.31</ele>
        <time>2016-04-23T11:40:46Z</time>
      </trkpt>
      <trkpt lat="43.29496" lon="5.37423">
        <ele>7.83</ele>
        <time>2016-04-23T11:40:47Z</time>
      </trkpt>
      <trkpt lat="43.29479" lon="5.37418">
        <ele>7.35</ele>
        <time>2016-04-23T11:40:59Z</time>
      </trkpt>
      <trkpt lat="43.29458" lon="5.37402">
        <ele>6.39</ele>
        <time>2016-04-23T11:41:09Z</time>
      </trkpt>
      <trkpt lat="43.29431" lon="5.37396">
        <ele>6.39</ele>
        <time>2016-04-23T11:41:24Z</time>
      </trkpt>
      <trkpt lat="43.29429" lon="5.37395">
        <ele>6.39</ele>
        <time>2016-04-23T11:41:25Z</time>
      </trkpt>
      <trkpt lat="43.2941" lon="5.37372">
        <ele>5.91</ele>
        <time>2016-04-23T11:41:39Z</time>
      </trkpt>
      <trkpt lat="43.29397" lon="5.37322">
        <ele>4.46</ele>
        <time>2016-04-23T11:41:56Z</time>
      </trkpt>
      <trkpt lat="43.29386" lon="5.37271">
        <ele>4.94</ele>
        <time>2016-04-23T11:42:14Z</time>
      </trkpt>
      <trkpt lat="43.29374" lon="5.37227">
        <ele>5.91</ele>
        <time>2016-04-23T11:42:28Z</time>
      </trkpt>
      <trkpt lat="43.29362" lon="5.37166">
        <ele>6.39</ele>
        <time>2016-04-23T11:42:46Z</time>
      </trkpt>
      <trkpt lat="43.29346" lon="5.37109">
        <ele>6.39</ele>
        <time>2016-04-23T11:43:04Z</time>
      </trkpt>
      <trkpt lat="43.29335" lon="5.37057">
        <ele>5.42</ele>
        <time>2016-04-23T11:43:20Z</time>
      </trkpt>
      <trkpt lat="43.29322" lon="5.37006">
        <ele>4.94</ele>
        <time>2016-04-23T11:43:36Z</time>
      </trkpt>
      <trkpt lat="43.29313" lon="5.36956">
        <ele>4.94</ele>
        <time>2016-04-23T11:43:51Z</time>
      </trkpt>
      <trkpt lat="43.29309" lon="5.36941">
        <ele>4.46</ele>
        <time>2016-04-23T11:43:56Z</time>
      </trkpt>
      <trkpt lat="43.29302" lon="5.36883">
        <ele>4.46</ele>
        <time>2016-04-23T11:44:13Z</time>
      </trkpt>
      <trkpt lat="43.29291" lon="5.36825">
        <ele>2.06</ele>
        <time>2016-04-23T11:44:30Z</time>
      </trkpt>
      <trkpt lat="43.29278" lon="5.36753">
        <ele>3.02</ele>
        <time>2016-04-23T11:44:50Z</time>
      </trkpt>
      <trkpt lat="43.29266" lon="5.36694">
        <ele>3.98</ele>
        <time>2016-04-23T11:45:08Z</time>
      </trkpt>
      <trkpt lat="43.29256" lon="5.36639">
        <ele>3.5</ele>
        <time>2016-04-23T11:45:25Z</time>
      </trkpt>
      <trkpt lat="43.29247" lon="5.36603">
        <ele>4.94</ele>
        <time>2016-04-23T11:45:40Z</time>
      </trkpt>
      <trkpt lat="43.29246" lon="5.36601">
        <ele>5.42</ele>
        <time>2016-04-23T11:45:41Z</time>
      </trkpt>
      <trkpt lat="43.29246" lon="5.36599">
        <ele>5.42</ele>
        <time>2016-04-23T11:45:42Z</time>
      </trkpt>
      <trkpt lat="43.29246" lon="5.36596">
        <ele>5.42</ele>
        <time>2016-04-23T11:45:43Z</time>
      </trkpt>
      <trkpt lat="43.29246" lon="5.36594">
        <ele>5.91</ele>
        <time>2016-04-23T11:45:44Z</time>
      </trkpt>
      <trkpt lat="43.29246" lon="5.36591">
        <ele>5.42</ele>
        <time>2016-04-23T11:45:45Z</time>
      </trkpt>
      <trkpt lat="43.29238" lon="5.36536">
        <ele>4.46</ele>
        <time>2016-04-23T11:46:03Z</time>
      </trkpt>
      <trkpt lat="43.29233" lon="5.36476">
        <ele>4.46</ele>
        <time>2016-04-23T11:46:21Z</time>
      </trkpt>
      <trkpt lat="43.29234" lon="5.36448">
        <ele>4.94</ele>
        <time>2016-04-23T11:46:32Z</time>
      </trkpt>
      <trkpt lat="43.2923" lon="5.36379">
        <ele>4.94</ele>
        <time>2016-04-23T11:46:50Z</time>
      </trkpt>
      <trkpt lat="43.2923" lon="5.36318">
        <ele>6.39</ele>
        <time>2016-04-23T11:47:09Z</time>
      </trkpt>
      <trkpt lat="43.29231" lon="5.36256">
        <ele>8.79</ele>
        <time>2016-04-23T11:47:27Z</time>
      </trkpt>
      <trkpt lat="43.29234" lon="5.36205">
        <ele>10.23</ele>
        <time>2016-04-23T11:47:43Z</time>
      </trkpt>
      <trkpt lat="43.29236" lon="5.36164">
        <ele>11.67</ele>
        <time>2016-04-23T11:47:57Z</time>
      </trkpt>
      <trkpt lat="43.29238" lon="5.36114">
        <ele>14.08</ele>
        <time>2016-04-23T11:48:13Z</time>
      </trkpt>
      <trkpt lat="43.29234" lon="5.36072">
        <ele>13.6</ele>
        <time>2016-04-23T11:48:28Z</time>
      </trkpt>
      <trkpt lat="43.2923" lon="5.36061">
        <ele>12.63</ele>
        <time>2016-04-23T11:48:43Z</time>
      </trkpt>
      <trkpt lat="43.29229" lon="5.36023">
        <ele>14.56</ele>
        <time>2016-04-23T11:48:54Z</time>
      </trkpt>
      <trkpt lat="43.29223" lon="5.35981">
        <ele>16</ele>
        <time>2016-04-23T11:49:07Z</time>
      </trkpt>
      <trkpt lat="43.29216" lon="5.35939">
        <ele>16.48</ele>
        <time>2016-04-23T11:49:19Z</time>
      </trkpt>
      <trkpt lat="43.29214" lon="5.35905">
        <ele>18.88</ele>
        <time>2016-04-23T11:49:30Z</time>
      </trkpt>
      <trkpt lat="43.29215" lon="5.35903">
        <ele>19.84</ele>
        <time>2016-04-23T11:49:31Z</time>
      </trkpt>
      <trkpt lat="43.29215" lon="5.35901">
        <ele>20.32</ele>
        <time>2016-04-23T11:49:32Z</time>
      </trkpt>
      <trkpt lat="43.2921" lon="5.35862">
        <ele>22.73</ele>
        <time>2016-04-23T11:49:45Z</time>
      </trkpt>
      <trkpt lat="43.29201" lon="5.35812">
        <ele>30.9</ele>
        <time>2016-04-23T11:49:58Z</time>
      </trkpt>
      <trkpt lat="43.292" lon="5.35801">
        <ele>35.23</ele>
        <time>2016-04-23T11:50:11Z</time>
      </trkpt>
      <trkpt lat="43.292" lon="5.35808">
        <ele>32.82</ele>
        <time>2016-04-23T11:50:25Z</time>
      </trkpt>
      <trkpt lat="43.29199" lon="5.35803">
        <ele>31.38</ele>
        <time>2016-04-23T11:50:35Z</time>
      </trkpt>
      <trkpt lat="43.29199" lon="5.358">
        <ele>30.9</ele>
        <time>2016-04-23T11:50:37Z</time>
      </trkpt>
      <trkpt lat="43.29199" lon="5.35798">
        <ele>30.9</ele>
        <time>2016-04-23T11:50:38Z</time>
      </trkpt>
      <trkpt lat="43.29197" lon="5.35792">
        <ele>28.98</ele>
        <time>2016-04-23T11:50:51Z</time>
      </trkpt>
      <trkpt lat="43.29197" lon="5.35795">
        <ele>27.53</ele>
        <time>2016-04-23T11:51:05Z</time>
      </trkpt>
      <trkpt lat="43.29197" lon="5.35806">
        <ele>25.61</ele>
        <time>2016-04-23T11:51:21Z</time>
      </trkpt>
      <trkpt lat="43.29197" lon="5.35803">
        <ele>25.13</ele>
        <time>2016-04-23T11:51:26Z</time>
      </trkpt>
      <trkpt lat="43.29194" lon="5.35794">
        <ele>25.61</ele>
        <time>2016-04-23T11:51:37Z</time>
      </trkpt>
      <trkpt lat="43.29193" lon="5.35777">
        <ele>27.53</ele>
        <time>2016-04-23T11:51:51Z</time>
      </trkpt>
      <trkpt lat="43.29187" lon="5.35756">
        <ele>29.94</ele>
        <time>2016-04-23T11:52:06Z</time>
      </trkpt>
      <trkpt lat="43.29185" lon="5.35743">
        <ele>33.3</ele>
        <time>2016-04-23T11:52:21Z</time>
      </trkpt>
      <trkpt lat="43.29184" lon="5.35724">
        <ele>35.23</ele>
        <time>2016-04-23T11:52:35Z</time>
      </trkpt>
      <trkpt lat="43.29183" lon="5.35705">
        <ele>40.51</ele>
        <time>2016-04-23T11:52:50Z</time>
      </trkpt>
      <trkpt lat="43.29179" lon="5.35677">
        <ele>44.36</ele>
        <time>2016-04-23T11:53:09Z</time>
      </trkpt>
      <trkpt lat="43.29179" lon="5.35673">
        <ele>44.36</ele>
        <time>2016-04-23T11:53:11Z</time>
      </trkpt>
      <trkpt lat="43.29173" lon="5.35645">
        <ele>36.67</ele>
        <time>2016-04-23T11:53:27Z</time>
      </trkpt>
      <trkpt lat="43.29174" lon="5.35643">
        <ele>36.19</ele>
        <time>2016-04-23T11:53:28Z</time>
      </trkpt>
      <trkpt lat="43.29177" lon="5.35614">
        <ele>28.5</ele>
        <time>2016-04-23T11:53:46Z</time>
      </trkpt>
      <trkpt lat="43.29178" lon="5.35612">
        <ele>28.5</ele>
        <time>2016-04-23T11:53:47Z</time>
      </trkpt>
      <trkpt lat="43.29177" lon="5.35607">
        <ele>28.02</ele>
        <time>2016-04-23T11:53:50Z</time>
      </trkpt>
      <trkpt lat="43.29174" lon="5.35586">
        <ele>22.25</ele>
        <time>2016-04-23T11:54:04Z</time>
      </trkpt>
      <trkpt lat="43.29173" lon="5.35584">
        <ele>22.25</ele>
        <time>2016-04-23T11:54:07Z</time>
      </trkpt>
      <trkpt lat="43.29157" lon="5.35582">
        <ele>21.29</ele>
        <time>2016-04-23T11:54:24Z</time>
      </trkpt>
      <trkpt lat="43.29153" lon="5.35577">
        <ele>21.77</ele>
        <time>2016-04-23T11:54:36Z</time>
      </trkpt>
      <trkpt lat="43.29146" lon="5.3558">
        <ele>23.21</ele>
        <time>2016-04-23T11:54:51Z</time>
      </trkpt>
      <trkpt lat="43.29135" lon="5.35574">
        <ele>21.77</ele>
        <time>2016-04-23T11:55:05Z</time>
      </trkpt>
      <trkpt lat="43.29129" lon="5.35573">
        <ele>14.56</ele>
        <time>2016-04-23T11:55:17Z</time>
      </trkpt>
      <trkpt lat="43.29118" lon="5.35576">
        <ele>16.48</ele>
        <time>2016-04-23T11:55:25Z</time>
      </trkpt>
      <trkpt lat="43.29112" lon="5.35575">
        <ele>18.4</ele>
        <time>2016-04-23T11:55:31Z</time>
      </trkpt>
      <trkpt lat="43.29095" lon="5.35578">
        <ele>19.84</ele>
        <time>2016-04-23T11:55:44Z</time>
      </trkpt>
      <trkpt lat="43.29078" lon="5.35581">
        <ele>19.36</ele>
        <time>2016-04-23T11:55:56Z</time>
      </trkpt>
      <trkpt lat="43.29058" lon="5.3558">
        <ele>16.96</ele>
        <time>2016-04-23T11:56:12Z</time>
      </trkpt>
      <trkpt lat="43.29053" lon="5.35578">
        <ele>16.48</ele>
        <time>2016-04-23T11:56:23Z</time>
      </trkpt>
      <trkpt lat="43.29044" lon="5.35578">
        <ele>13.6</ele>
        <time>2016-04-23T11:56:41Z</time>
      </trkpt>
      <trkpt lat="43.29044" lon="5.35571">
        <ele>11.67</ele>
        <time>2016-04-23T11:56:53Z</time>
      </trkpt>
      <trkpt lat="43.29045" lon="5.35561">
        <ele>13.12</ele>
        <time>2016-04-23T11:57:08Z</time>
      </trkpt>
      <trkpt lat="43.29055" lon="5.35556">
        <ele>13.12</ele>
        <time>2016-04-23T11:57:23Z</time>
      </trkpt>
      <trkpt lat="43.29057" lon="5.35551">
        <ele>12.63</ele>
        <time>2016-04-23T11:57:38Z</time>
      </trkpt>
      <trkpt lat="43.29059" lon="5.35543">
        <ele>12.63</ele>
        <time>2016-04-23T11:57:45Z</time>
      </trkpt>
      <trkpt lat="43.29057" lon="5.35535">
        <ele>11.19</ele>
        <time>2016-04-23T11:57:56Z</time>
      </trkpt>
      <trkpt lat="43.29057" lon="5.35532">
        <ele>7.35</ele>
        <time>2016-04-23T11:58:28Z</time>
      </trkpt>
      <trkpt lat="43.29058" lon="5.35533">
        <ele>4.46</ele>
        <time>2016-04-23T11:58:59Z</time>
      </trkpt>
      <trkpt lat="43.29059" lon="5.35534">
        <ele>6.39</ele>
        <time>2016-04-23T11:59:28Z</time>
      </trkpt>
      <trkpt lat="43.29059" lon="5.35534">
        <ele>5.42</ele>
        <time>2016-04-23T11:59:35Z</time>
      </trkpt>
      <trkpt lat="43.29058" lon="5.35532">
        <ele>4.94</ele>
        <time>2016-04-23T13:17:54Z</time>
      </trkpt>
      <trkpt lat="43.28997" lon="5.35488">
        <ele>11.67</ele>
        <time>2016-04-23T13:18:08Z</time>
      </trkpt>
      <trkpt lat="43.29008" lon="5.35499">
        <ele>4.46</ele>
        <time>2016-04-23T13:18:21Z</time>
      </trkpt>
      <trkpt lat="43.29017" lon="5.35515">
        <ele>2.54</ele>
        <time>2016-04-23T13:18:34Z</time>
      </trkpt>
      <trkpt lat="43.29017" lon="5.3552">
        <ele>2.06</ele>
        <time>2016-04-23T13:18:38Z</time>
      </trkpt>
      <trkpt lat="43.2901" lon="5.35529">
        <ele>5.91</ele>
        <time>2016-04-23T13:18:51Z</time>
      </trkpt>
      <trkpt lat="43.28997" lon="5.35558">
        <ele>14.56</ele>
        <time>2016-04-23T13:19:09Z</time>
      </trkpt>
      <trkpt lat="43.28993" lon="5.35563">
        <ele>14.08</ele>
        <time>2016-04-23T13:19:13Z</time>
      </trkpt>
      <trkpt lat="43.2899" lon="5.35563">
        <ele>14.08</ele>
        <time>2016-04-23T13:19:17Z</time>
      </trkpt>
      <trkpt lat="43.2899" lon="5.3556">
        <ele>14.08</ele>
        <time>2016-04-23T13:19:19Z</time>
      </trkpt>
      <trkpt lat="43.28989" lon="5.35556">
        <ele>13.6</ele>
        <time>2016-04-23T13:19:23Z</time>
      </trkpt>
      <trkpt lat="43.28974" lon="5.35539">
        <ele>12.63</ele>
        <time>2016-04-23T13:19:39Z</time>
      </trkpt>
      <trkpt lat="43.28969" lon="5.35528">
        <ele>12.15</ele>
        <time>2016-04-23T13:19:46Z</time>
      </trkpt>
      <trkpt lat="43.28966" lon="5.35524">
        <ele>12.63</ele>
        <time>2016-04-23T13:20:00Z</time>
      </trkpt>
      <trkpt lat="43.28965" lon="5.35522">
        <ele>10.71</ele>
        <time>2016-04-23T13:20:17Z</time>
      </trkpt>
      <trkpt lat="43.28963" lon="5.3552">
        <ele>10.71</ele>
        <time>2016-04-23T13:20:21Z</time>
      </trkpt>
      <trkpt lat="43.28961" lon="5.35518">
        <ele>11.19</ele>
        <time>2016-04-23T13:20:24Z</time>
      </trkpt>
      <trkpt lat="43.28953" lon="5.35506">
        <ele>16</ele>
        <time>2016-04-23T13:20:37Z</time>
      </trkpt>
      <trkpt lat="43.28947" lon="5.35505">
        <ele>16.96</ele>
        <time>2016-04-23T13:20:41Z</time>
      </trkpt>
      <trkpt lat="43.28939" lon="5.3548">
        <ele>20.32</ele>
        <time>2016-04-23T13:20:57Z</time>
      </trkpt>
      <trkpt lat="43.28927" lon="5.35454">
        <ele>21.29</ele>
        <time>2016-04-23T13:21:13Z</time>
      </trkpt>
      <trkpt lat="43.28917" lon="5.35426">
        <ele>18.4</ele>
        <time>2016-04-23T13:21:30Z</time>
      </trkpt>
      <trkpt lat="43.28912" lon="5.35422">
        <ele>18.4</ele>
        <time>2016-04-23T13:21:34Z</time>
      </trkpt>
      <trkpt lat="43.28905" lon="5.35408">
        <ele>18.4</ele>
        <time>2016-04-23T13:21:44Z</time>
      </trkpt>
      <trkpt lat="43.28893" lon="5.35378">
        <ele>19.36</ele>
        <time>2016-04-23T13:22:02Z</time>
      </trkpt>
      <trkpt lat="43.28878" lon="5.3536">
        <ele>15.04</ele>
        <time>2016-04-23T13:22:17Z</time>
      </trkpt>
      <trkpt lat="43.28874" lon="5.35359">
        <ele>14.08</ele>
        <time>2016-04-23T13:22:25Z</time>
      </trkpt>
      <trkpt lat="43.2886" lon="5.35333">
        <ele>13.6</ele>
        <time>2016-04-23T13:22:44Z</time>
      </trkpt>
      <trkpt lat="43.28844" lon="5.35305">
        <ele>12.63</ele>
        <time>2016-04-23T13:23:03Z</time>
      </trkpt>
      <trkpt lat="43.28834" lon="5.35282">
        <ele>12.63</ele>
        <time>2016-04-23T13:23:17Z</time>
      </trkpt>
      <trkpt lat="43.28823" lon="5.35255">
        <ele>14.08</ele>
        <time>2016-04-23T13:23:33Z</time>
      </trkpt>
      <trkpt lat="43.28809" lon="5.35236">
        <ele>14.56</ele>
        <time>2016-04-23T13:23:50Z</time>
      </trkpt>
      <trkpt lat="43.28796" lon="5.35227">
        <ele>14.08</ele>
        <time>2016-04-23T13:24:01Z</time>
      </trkpt>
      <trkpt lat="43.28784" lon="5.35226">
        <ele>14.08</ele>
        <time>2016-04-23T13:24:09Z</time>
      </trkpt>
      <trkpt lat="43.28766" lon="5.35223">
        <ele>15.52</ele>
        <time>2016-04-23T13:24:26Z</time>
      </trkpt>
      <trkpt lat="43.28748" lon="5.35216">
        <ele>16.96</ele>
        <time>2016-04-23T13:24:41Z</time>
      </trkpt>
      <trkpt lat="43.2872" lon="5.35205">
        <ele>17.92</ele>
        <time>2016-04-23T13:25:01Z</time>
      </trkpt>
      <trkpt lat="43.28713" lon="5.35203">
        <ele>17.92</ele>
        <time>2016-04-23T13:25:06Z</time>
      </trkpt>
      <trkpt lat="43.28702" lon="5.3519">
        <ele>16.96</ele>
        <time>2016-04-23T13:25:16Z</time>
      </trkpt>
      <trkpt lat="43.28681" lon="5.35169">
        <ele>16.96</ele>
        <time>2016-04-23T13:25:35Z</time>
      </trkpt>
      <trkpt lat="43.28656" lon="5.35149">
        <ele>16.96</ele>
        <time>2016-04-23T13:25:55Z</time>
      </trkpt>
      <trkpt lat="43.28636" lon="5.35129">
        <ele>17.92</ele>
        <time>2016-04-23T13:26:14Z</time>
      </trkpt>
      <trkpt lat="43.28632" lon="5.35126">
        <ele>18.4</ele>
        <time>2016-04-23T13:26:18Z</time>
      </trkpt>
      <trkpt lat="43.2863" lon="5.35121">
        <ele>19.36</ele>
        <time>2016-04-23T13:26:21Z</time>
      </trkpt>
      <trkpt lat="43.28625" lon="5.35109">
        <ele>19.36</ele>
        <time>2016-04-23T13:26:29Z</time>
      </trkpt>
      <trkpt lat="43.28611" lon="5.35095">
        <ele>17.44</ele>
        <time>2016-04-23T13:26:41Z</time>
      </trkpt>
      <trkpt lat="43.28605" lon="5.35087">
        <ele>16.96</ele>
        <time>2016-04-23T13:26:56Z</time>
      </trkpt>
      <trkpt lat="43.28602" lon="5.35079">
        <ele>17.44</ele>
        <time>2016-04-23T13:27:17Z</time>
      </trkpt>
      <trkpt lat="43.28593" lon="5.35064">
        <ele>17.92</ele>
        <time>2016-04-23T13:27:33Z</time>
      </trkpt>
      <trkpt lat="43.28591" lon="5.35066">
        <ele>17.44</ele>
        <time>2016-04-23T13:27:49Z</time>
      </trkpt>
      <trkpt lat="43.28584" lon="5.35075">
        <ele>16</ele>
        <time>2016-04-23T13:27:57Z</time>
      </trkpt>
      <trkpt lat="43.28581" lon="5.35075">
        <ele>15.52</ele>
        <time>2016-04-23T13:28:00Z</time>
      </trkpt>
      <trkpt lat="43.28577" lon="5.35074">
        <ele>14.56</ele>
        <time>2016-04-23T13:28:08Z</time>
      </trkpt>
      <trkpt lat="43.28579" lon="5.35075">
        <ele>14.08</ele>
        <time>2016-04-23T13:28:20Z</time>
      </trkpt>
      <trkpt lat="43.2858" lon="5.35077">
        <ele>14.56</ele>
        <time>2016-04-23T13:28:26Z</time>
      </trkpt>
      <trkpt lat="43.2858" lon="5.35081">
        <ele>15.52</ele>
        <time>2016-04-23T13:28:42Z</time>
      </trkpt>
      <trkpt lat="43.28578" lon="5.35086">
        <ele>16.96</ele>
        <time>2016-04-23T13:28:53Z</time>
      </trkpt>
      <trkpt lat="43.28577" lon="5.35084">
        <ele>17.44</ele>
        <time>2016-04-23T13:28:54Z</time>
      </trkpt>
      <trkpt lat="43.28568" lon="5.35081">
        <ele>16.96</ele>
        <time>2016-04-23T13:29:07Z</time>
      </trkpt>
      <trkpt lat="43.28567" lon="5.35083">
        <ele>16.48</ele>
        <time>2016-04-23T13:29:26Z</time>
      </trkpt>
      <trkpt lat="43.28563" lon="5.35076">
        <ele>16.96</ele>
        <time>2016-04-23T13:29:35Z</time>
      </trkpt>
      <trkpt lat="43.28563" lon="5.35075">
        <ele>16.96</ele>
        <time>2016-04-23T13:29:36Z</time>
      </trkpt>
      <trkpt lat="43.28562" lon="5.35074">
        <ele>16.96</ele>
        <time>2016-04-23T13:29:37Z</time>
      </trkpt>
      <trkpt lat="43.28561" lon="5.35072">
        <ele>16.96</ele>
        <time>2016-04-23T13:29:38Z</time>
      </trkpt>
      <trkpt lat="43.2856" lon="5.35071">
        <ele>16.96</ele>
        <time>2016-04-23T13:29:39Z</time>
      </trkpt>
      <trkpt lat="43.28559" lon="5.3507">
        <ele>16.96</ele>
        <time>2016-04-23T13:29:40Z</time>
      </trkpt>
      <trkpt lat="43.28557" lon="5.3507">
        <ele>16.96</ele>
        <time>2016-04-23T13:29:41Z</time>
      </trkpt>
      <trkpt lat="43.28537" lon="5.35051">
        <ele>16.96</ele>
        <time>2016-04-23T13:29:59Z</time>
      </trkpt>
      <trkpt lat="43.28521" lon="5.35038">
        <ele>16.96</ele>
        <time>2016-04-23T13:30:15Z</time>
      </trkpt>
      <trkpt lat="43.28516" lon="5.35031">
        <ele>16.96</ele>
        <time>2016-04-23T13:30:31Z</time>
      </trkpt>
      <trkpt lat="43.28515" lon="5.35031">
        <ele>16.96</ele>
        <time>2016-04-23T13:30:32Z</time>
      </trkpt>
      <trkpt lat="43.28514" lon="5.35033">
        <ele>17.44</ele>
        <time>2016-04-23T13:30:33Z</time>
      </trkpt>
      <trkpt lat="43.28512" lon="5.35037">
        <ele>17.44</ele>
        <time>2016-04-23T13:30:36Z</time>
      </trkpt>
      <trkpt lat="43.28511" lon="5.35038">
        <ele>17.44</ele>
        <time>2016-04-23T13:30:37Z</time>
      </trkpt>
      <trkpt lat="43.2851" lon="5.35039">
        <ele>16.96</ele>
        <time>2016-04-23T13:30:38Z</time>
      </trkpt>
      <trkpt lat="43.28509" lon="5.35041">
        <ele>16.96</ele>
        <time>2016-04-23T13:30:39Z</time>
      </trkpt>
      <trkpt lat="43.28509" lon="5.35042">
        <ele>16.96</ele>
        <time>2016-04-23T13:30:40Z</time>
      </trkpt>
      <trkpt lat="43.28505" lon="5.35048">
        <ele>17.44</ele>
        <time>2016-04-23T13:30:45Z</time>
      </trkpt>
      <trkpt lat="43.28505" lon="5.3505">
        <ele>17.92</ele>
        <time>2016-04-23T13:30:46Z</time>
      </trkpt>
      <trkpt lat="43.28505" lon="5.35051">
        <ele>18.4</ele>
        <time>2016-04-23T13:30:47Z</time>
      </trkpt>
      <trkpt lat="43.28505" lon="5.35053">
        <ele>18.88</ele>
        <time>2016-04-23T13:30:48Z</time>
      </trkpt>
      <trkpt lat="43.28504" lon="5.35054">
        <ele>18.88</ele>
        <time>2016-04-23T13:30:49Z</time>
      </trkpt>
      <trkpt lat="43.28503" lon="5.35061">
        <ele>20.81</ele>
        <time>2016-04-23T13:30:54Z</time>
      </trkpt>
      <trkpt lat="43.28502" lon="5.35062">
        <ele>21.29</ele>
        <time>2016-04-23T13:30:55Z</time>
      </trkpt>
      <trkpt lat="43.28496" lon="5.35079">
        <ele>22.73</ele>
        <time>2016-04-23T13:31:06Z</time>
      </trkpt>
      <trkpt lat="43.28495" lon="5.3508">
        <ele>22.73</ele>
        <time>2016-04-23T13:31:07Z</time>
      </trkpt>
      <trkpt lat="43.28495" lon="5.35082">
        <ele>23.21</ele>
        <time>2016-04-23T13:31:08Z</time>
      </trkpt>
      <trkpt lat="43.28498" lon="5.35096">
        <ele>26.09</ele>
        <time>2016-04-23T13:31:16Z</time>
      </trkpt>
      <trkpt lat="43.28497" lon="5.35097">
        <ele>26.09</ele>
        <time>2016-04-23T13:31:17Z</time>
      </trkpt>
      <trkpt lat="43.28493" lon="5.35111">
        <ele>25.61</ele>
        <time>2016-04-23T13:31:27Z</time>
      </trkpt>
      <trkpt lat="43.28505" lon="5.35133">
        <ele>27.53</ele>
        <time>2016-04-23T13:31:40Z</time>
      </trkpt>
      <trkpt lat="43.28511" lon="5.35126">
        <ele>28.02</ele>
        <time>2016-04-23T13:31:52Z</time>
      </trkpt>
      <trkpt lat="43.28517" lon="5.35123">
        <ele>28.02</ele>
        <time>2016-04-23T13:32:03Z</time>
      </trkpt>
      <trkpt lat="43.28527" lon="5.35125">
        <ele>28.02</ele>
        <time>2016-04-23T13:32:16Z</time>
      </trkpt>
      <trkpt lat="43.28529" lon="5.35127">
        <ele>27.53</ele>
        <time>2016-04-23T13:32:21Z</time>
      </trkpt>
      <trkpt lat="43.2853" lon="5.35129">
        <ele>27.53</ele>
        <time>2016-04-23T13:32:22Z</time>
      </trkpt>
      <trkpt lat="43.28533" lon="5.35136">
        <ele>27.53</ele>
        <time>2016-04-23T13:32:28Z</time>
      </trkpt>
      <trkpt lat="43.28533" lon="5.35143">
        <ele>25.13</ele>
        <time>2016-04-23T13:32:38Z</time>
      </trkpt>
      <trkpt lat="43.28533" lon="5.35146">
        <ele>20.32</ele>
        <time>2016-04-23T13:32:48Z</time>
      </trkpt>
      <trkpt lat="43.28543" lon="5.35155">
        <ele>17.92</ele>
        <time>2016-04-23T13:33:03Z</time>
      </trkpt>
      <trkpt lat="43.28539" lon="5.35157">
        <ele>20.81</ele>
        <time>2016-04-23T13:33:14Z</time>
      </trkpt>
      <trkpt lat="43.28541" lon="5.35137">
        <ele>26.57</ele>
        <time>2016-04-23T13:33:29Z</time>
      </trkpt>
      <trkpt lat="43.28541" lon="5.35116">
        <ele>27.05</ele>
        <time>2016-04-23T13:33:49Z</time>
      </trkpt>
      <trkpt lat="43.28541" lon="5.35111">
        <ele>29.94</ele>
        <time>2016-04-23T13:34:04Z</time>
      </trkpt>
      <trkpt lat="43.28543" lon="5.35095">
        <ele>33.78</ele>
        <time>2016-04-23T13:34:20Z</time>
      </trkpt>
      <trkpt lat="43.28543" lon="5.35093">
        <ele>33.78</ele>
        <time>2016-04-23T13:34:21Z</time>
      </trkpt>
      <trkpt lat="43.28543" lon="5.35092">
        <ele>33.78</ele>
        <time>2016-04-23T13:34:22Z</time>
      </trkpt>
      <trkpt lat="43.28543" lon="5.3509">
        <ele>34.26</ele>
        <time>2016-04-23T13:34:23Z</time>
      </trkpt>
      <trkpt lat="43.28541" lon="5.35077">
        <ele>35.71</ele>
        <time>2016-04-23T13:34:34Z</time>
      </trkpt>
      <trkpt lat="43.28543" lon="5.35073">
        <ele>33.78</ele>
        <time>2016-04-23T13:34:37Z</time>
      </trkpt>
      <trkpt lat="43.28548" lon="5.35056">
        <ele>25.13</ele>
        <time>2016-04-23T13:34:46Z</time>
      </trkpt>
      <trkpt lat="43.28558" lon="5.35043">
        <ele>18.4</ele>
        <time>2016-04-23T13:35:04Z</time>
      </trkpt>
      <trkpt lat="43.28559" lon="5.35047">
        <ele>17.92</ele>
        <time>2016-04-23T13:35:08Z</time>
      </trkpt>
      <trkpt lat="43.28557" lon="5.35045">
        <ele>16.96</ele>
        <time>2016-04-23T13:35:11Z</time>
      </trkpt>
      <trkpt lat="43.28557" lon="5.35043">
        <ele>17.44</ele>
        <time>2016-04-23T13:35:12Z</time>
      </trkpt>
      <trkpt lat="43.28557" lon="5.3504">
        <ele>17.44</ele>
        <time>2016-04-23T13:35:13Z</time>
      </trkpt>
      <trkpt lat="43.28556" lon="5.35038">
        <ele>17.44</ele>
        <time>2016-04-23T13:35:14Z</time>
      </trkpt>
      <trkpt lat="43.28556" lon="5.35034">
        <ele>17.44</ele>
        <time>2016-04-23T13:35:15Z</time>
      </trkpt>
      <trkpt lat="43.28556" lon="5.35032">
        <ele>17.44</ele>
        <time>2016-04-23T13:35:16Z</time>
      </trkpt>
      <trkpt lat="43.28556" lon="5.3503">
        <ele>17.44</ele>
        <time>2016-04-23T13:35:17Z</time>
      </trkpt>
      <trkpt lat="43.28557" lon="5.35023">
        <ele>21.29</ele>
        <time>2016-04-23T13:35:29Z</time>
      </trkpt>
      <trkpt lat="43.28559" lon="5.35024">
        <ele>25.61</ele>
        <time>2016-04-23T13:35:46Z</time>
      </trkpt>
      <trkpt lat="43.2856" lon="5.35025">
        <ele>24.65</ele>
        <time>2016-04-23T13:35:58Z</time>
      </trkpt>
      <trkpt lat="43.28555" lon="5.35039">
        <ele>19.84</ele>
        <time>2016-04-23T13:36:11Z</time>
      </trkpt>
      <trkpt lat="43.2857" lon="5.3504">
        <ele>19.36</ele>
        <time>2016-04-23T13:36:25Z</time>
      </trkpt>
      <trkpt lat="43.28576" lon="5.35043">
        <ele>18.4</ele>
        <time>2016-04-23T13:36:34Z</time>
      </trkpt>
      <trkpt lat="43.28581" lon="5.35054">
        <ele>19.36</ele>
        <time>2016-04-23T13:36:49Z</time>
      </trkpt>
      <trkpt lat="43.28583" lon="5.35062">
        <ele>24.65</ele>
        <time>2016-04-23T13:37:04Z</time>
      </trkpt>
      <trkpt lat="43.28585" lon="5.35071">
        <ele>24.17</ele>
        <time>2016-04-23T13:37:16Z</time>
      </trkpt>
      <trkpt lat="43.28593" lon="5.35085">
        <ele>21.29</ele>
        <time>2016-04-23T13:37:31Z</time>
      </trkpt>
      <trkpt lat="43.28608" lon="5.35091">
        <ele>19.84</ele>
        <time>2016-04-23T13:37:44Z</time>
      </trkpt>
      <trkpt lat="43.28611" lon="5.35102">
        <ele>19.36</ele>
        <time>2016-04-23T13:37:59Z</time>
      </trkpt>
      <trkpt lat="43.28628" lon="5.35114">
        <ele>16.96</ele>
        <time>2016-04-23T13:38:18Z</time>
      </trkpt>
      <trkpt lat="43.28626" lon="5.35122">
        <ele>16.48</ele>
        <time>2016-04-23T13:38:32Z</time>
      </trkpt>
      <trkpt lat="43.28637" lon="5.35134">
        <ele>15.04</ele>
        <time>2016-04-23T13:38:45Z</time>
      </trkpt>
      <trkpt lat="43.28657" lon="5.35152">
        <ele>15.04</ele>
        <time>2016-04-23T13:39:04Z</time>
      </trkpt>
      <trkpt lat="43.28674" lon="5.35167">
        <ele>16.96</ele>
        <time>2016-04-23T13:39:23Z</time>
      </trkpt>
      <trkpt lat="43.28687" lon="5.35176">
        <ele>16.96</ele>
        <time>2016-04-23T13:39:36Z</time>
      </trkpt>
      <trkpt lat="43.28711" lon="5.35196">
        <ele>16</ele>
        <time>2016-04-23T13:39:55Z</time>
      </trkpt>
      <trkpt lat="43.28731" lon="5.35211">
        <ele>14.08</ele>
        <time>2016-04-23T13:40:14Z</time>
      </trkpt>
      <trkpt lat="43.28748" lon="5.35215">
        <ele>17.44</ele>
        <time>2016-04-23T13:40:27Z</time>
      </trkpt>
      <trkpt lat="43.28767" lon="5.35221">
        <ele>18.88</ele>
        <time>2016-04-23T13:40:43Z</time>
      </trkpt>
      <trkpt lat="43.28787" lon="5.35233">
        <ele>16.48</ele>
        <time>2016-04-23T13:40:58Z</time>
      </trkpt>
      <trkpt lat="43.28812" lon="5.35251">
        <ele>14.08</ele>
        <time>2016-04-23T13:41:19Z</time>
      </trkpt>
      <trkpt lat="43.28825" lon="5.35277">
        <ele>11.67</ele>
        <time>2016-04-23T13:41:38Z</time>
      </trkpt>
      <trkpt lat="43.28838" lon="5.35302">
        <ele>12.15</ele>
        <time>2016-04-23T13:41:57Z</time>
      </trkpt>
      <trkpt lat="43.28856" lon="5.35335">
        <ele>13.6</ele>
        <time>2016-04-23T13:42:20Z</time>
      </trkpt>
      <trkpt lat="43.28871" lon="5.35361">
        <ele>10.71</ele>
        <time>2016-04-23T13:42:38Z</time>
      </trkpt>
      <trkpt lat="43.2889" lon="5.35393">
        <ele>11.19</ele>
        <time>2016-04-23T13:43:01Z</time>
      </trkpt>
      <trkpt lat="43.289" lon="5.35417">
        <ele>9.75</ele>
        <time>2016-04-23T13:43:18Z</time>
      </trkpt>
      <trkpt lat="43.28909" lon="5.35438">
        <ele>8.79</ele>
        <time>2016-04-23T13:43:33Z</time>
      </trkpt>
      <trkpt lat="43.28927" lon="5.35462">
        <ele>11.67</ele>
        <time>2016-04-23T13:43:53Z</time>
      </trkpt>
      <trkpt lat="43.28932" lon="5.35469">
        <ele>12.15</ele>
        <time>2016-04-23T13:44:11Z</time>
      </trkpt>
      <trkpt lat="43.28937" lon="5.35478">
        <ele>11.67</ele>
        <time>2016-04-23T13:44:23Z</time>
      </trkpt>
      <trkpt lat="43.28939" lon="5.35484">
        <ele>10.71</ele>
        <time>2016-04-23T13:44:28Z</time>
      </trkpt>
      <trkpt lat="43.2895" lon="5.35504">
        <ele>12.63</ele>
        <time>2016-04-23T13:44:43Z</time>
      </trkpt>
      <trkpt lat="43.28963" lon="5.35533">
        <ele>15.04</ele>
        <time>2016-04-23T13:45:00Z</time>
      </trkpt>
      <trkpt lat="43.28978" lon="5.35549">
        <ele>18.4</ele>
        <time>2016-04-23T13:45:18Z</time>
      </trkpt>
      <trkpt lat="43.28997" lon="5.35568">
        <ele>16.96</ele>
        <time>2016-04-23T13:45:34Z</time>
      </trkpt>
      <trkpt lat="43.29001" lon="5.35567">
        <ele>16.96</ele>
        <time>2016-04-23T13:45:38Z</time>
      </trkpt>
      <trkpt lat="43.29013" lon="5.3554">
        <ele>11.67</ele>
        <time>2016-04-23T13:45:56Z</time>
      </trkpt>
      <trkpt lat="43.29015" lon="5.35533">
        <ele>11.19</ele>
        <time>2016-04-23T13:46:00Z</time>
      </trkpt>
      <trkpt lat="43.29022" lon="5.35525">
        <ele>9.27</ele>
        <time>2016-04-23T13:46:07Z</time>
      </trkpt>
      <trkpt lat="43.29037" lon="5.35527">
        <ele>8.31</ele>
        <time>2016-04-23T13:46:23Z</time>
      </trkpt>
      <trkpt lat="43.29046" lon="5.35533">
        <ele>7.83</ele>
        <time>2016-04-23T13:46:37Z</time>
      </trkpt>
      <trkpt lat="43.29056" lon="5.35534">
        <ele>6.39</ele>
        <time>2016-04-23T13:46:55Z</time>
      </trkpt>
      <trkpt lat="43.29059" lon="5.35527">
        <ele>1.1</ele>
        <time>2016-04-23T13:47:31Z</time>
      </trkpt>
      <trkpt lat="43.29059" lon="5.35527">
        <ele>1.1</ele>
        <time>2016-04-23T13:48:05Z</time>
      </trkpt>
      <trkpt lat="43.29057" lon="5.35526">
        <ele>-0.34</ele>
        <time>2016-04-23T13:48:32Z</time>
      </trkpt>
      <trkpt lat="43.29059" lon="5.35531">
        <ele>-0.34</ele>
        <time>2016-04-23T13:48:52Z</time>
      </trkpt>
      <trkpt lat="43.29059" lon="5.35531">
        <ele>0.62</ele>
        <time>2016-04-23T13:49:04Z</time>
      </trkpt>
      <trkpt lat="43.29059" lon="5.3553">
        <ele>-0.34</ele>
        <time>2016-04-23T13:49:25Z</time>
      </trkpt>
      <trkpt lat="43.29061" lon="5.35531">
        <ele>1.1</ele>
        <time>2016-04-23T13:49:52Z</time>
      </trkpt>
      <trkpt lat="43.29059" lon="5.35531">
        <ele>-0.34</ele>
        <time>2016-04-23T13:50:22Z</time>
      </trkpt>
      <trkpt lat="43.2906" lon="5.35531">
        <ele>0.62</ele>
        <time>2016-04-23T13:50:43Z</time>
      </trkpt>
      <trkpt lat="43.2906" lon="5.35531">
        <ele>1.1</ele>
        <time>2016-04-23T13:51:09Z</time>
      </trkpt>
      <trkpt lat="43.29061" lon="5.35532">
        <ele>1.58</ele>
        <time>2016-04-23T13:51:25Z</time>
      </trkpt>
      <trkpt lat="43.29061" lon="5.35532">
        <ele>1.1</ele>
        <time>2016-04-23T13:51:51Z</time>
      </trkpt>
      <trkpt lat="43.29059" lon="5.35533">
        <ele>3.5</ele>
        <time>2016-04-23T13:52:16Z</time>
      </trkpt>
      <trkpt lat="43.29061" lon="5.35532">
        <ele>1.1</ele>
        <time>2016-04-23T13:52:37Z</time>
      </trkpt>
      <trkpt lat="43.29059" lon="5.35532">
        <ele>1.1</ele>
        <time>2016-04-23T13:53:09Z</time>
      </trkpt>
      <trkpt lat="43.29059" lon="5.35531">
        <ele>3.02</ele>
        <time>2016-04-23T13:53:35Z</time>
      </trkpt>
      <trkpt lat="43.29061" lon="5.3553">
        <ele>3.5</ele>
        <time>2016-04-23T13:53:54Z</time>
      </trkpt>
      <trkpt lat="43.2906" lon="5.35533">
        <ele>3.02</ele>
        <time>2016-04-23T13:53:58Z</time>
      </trkpt>
      <trkpt lat="43.29057" lon="5.35546">
        <ele>2.06</ele>
        <time>2016-04-23T13:54:11Z</time>
      </trkpt>
      <trkpt lat="43.2905" lon="5.35559">
        <ele>2.06</ele>
        <time>2016-04-23T13:54:27Z</time>
      </trkpt>
      <trkpt lat="43.29046" lon="5.3557">
        <ele>1.1</ele>
        <time>2016-04-23T13:54:39Z</time>
      </trkpt>
      <trkpt lat="43.29045" lon="5.3558">
        <ele>1.1</ele>
        <time>2016-04-23T13:54:51Z</time>
      </trkpt>
      <trkpt lat="43.2905" lon="5.35585">
        <ele>2.54</ele>
        <time>2016-04-23T13:55:07Z</time>
      </trkpt>
      <trkpt lat="43.29053" lon="5.35589">
        <ele>4.94</ele>
        <time>2016-04-23T13:55:20Z</time>
      </trkpt>
      <trkpt lat="43.29054" lon="5.3559">
        <ele>7.83</ele>
        <time>2016-04-23T13:55:33Z</time>
      </trkpt>
      <trkpt lat="43.29054" lon="5.35588">
        <ele>12.63</ele>
        <time>2016-04-23T13:55:54Z</time>
      </trkpt>
      <trkpt lat="43.29056" lon="5.35585">
        <ele>14.56</ele>
        <time>2016-04-23T13:56:12Z</time>
      </trkpt>
      <trkpt lat="43.29059" lon="5.35585">
        <ele>14.08</ele>
        <time>2016-04-23T13:56:41Z</time>
      </trkpt>
      <trkpt lat="43.29058" lon="5.35587">
        <ele>12.63</ele>
        <time>2016-04-23T13:57:11Z</time>
      </trkpt>
      <trkpt lat="43.2906" lon="5.35587">
        <ele>11.67</ele>
        <time>2016-04-23T13:57:38Z</time>
      </trkpt>
      <trkpt lat="43.2907" lon="5.35586">
        <ele>18.4</ele>
        <time>2016-04-23T13:57:53Z</time>
      </trkpt>
      <trkpt lat="43.29084" lon="5.35581">
        <ele>27.05</ele>
        <time>2016-04-23T13:58:11Z</time>
      </trkpt>
      <trkpt lat="43.29098" lon="5.35587">
        <ele>18.4</ele>
        <time>2016-04-23T13:58:35Z</time>
      </trkpt>
      <trkpt lat="43.291" lon="5.35587">
        <ele>16.96</ele>
        <time>2016-04-23T13:58:46Z</time>
      </trkpt>
      <trkpt lat="43.29106" lon="5.35584">
        <ele>23.21</ele>
        <time>2016-04-23T13:58:59Z</time>
      </trkpt>
      <trkpt lat="43.29114" lon="5.3558">
        <ele>32.34</ele>
        <time>2016-04-23T13:59:12Z</time>
      </trkpt>
      <trkpt lat="43.29132" lon="5.35582">
        <ele>29.46</ele>
        <time>2016-04-23T13:59:28Z</time>
      </trkpt>
      <trkpt lat="43.29138" lon="5.35578">
        <ele>36.67</ele>
        <time>2016-04-23T13:59:40Z</time>
      </trkpt>
      <trkpt lat="43.29156" lon="5.35574">
        <ele>39.55</ele>
        <time>2016-04-23T13:59:57Z</time>
      </trkpt>
      <trkpt lat="43.29169" lon="5.35586">
        <ele>35.71</ele>
        <time>2016-04-23T14:00:09Z</time>
      </trkpt>
      <trkpt lat="43.29172" lon="5.3559">
        <ele>34.74</ele>
        <time>2016-04-23T14:00:13Z</time>
      </trkpt>
      <trkpt lat="43.29176" lon="5.35609">
        <ele>34.26</ele>
        <time>2016-04-23T14:00:28Z</time>
      </trkpt>
      <trkpt lat="43.29181" lon="5.3564">
        <ele>34.74</ele>
        <time>2016-04-23T14:00:45Z</time>
      </trkpt>
      <trkpt lat="43.29181" lon="5.35645">
        <ele>35.71</ele>
        <time>2016-04-23T14:00:48Z</time>
      </trkpt>
      <trkpt lat="43.29182" lon="5.35651">
        <ele>37.63</ele>
        <time>2016-04-23T14:00:52Z</time>
      </trkpt>
      <trkpt lat="43.29169" lon="5.35678">
        <ele>40.51</ele>
        <time>2016-04-23T14:01:10Z</time>
      </trkpt>
      <trkpt lat="43.2916" lon="5.35698">
        <ele>40.99</ele>
        <time>2016-04-23T14:01:29Z</time>
      </trkpt>
      <trkpt lat="43.2917" lon="5.35719">
        <ele>43.88</ele>
        <time>2016-04-23T14:01:44Z</time>
      </trkpt>
      <trkpt lat="43.29171" lon="5.35741">
        <ele>48.2</ele>
        <time>2016-04-23T14:02:01Z</time>
      </trkpt>
      <trkpt lat="43.29181" lon="5.35767">
        <ele>51.09</ele>
        <time>2016-04-23T14:02:18Z</time>
      </trkpt>
      <trkpt lat="43.29184" lon="5.35789">
        <ele>59.26</ele>
        <time>2016-04-23T14:02:36Z</time>
      </trkpt>
      <trkpt lat="43.2919" lon="5.35813">
        <ele>61.66</ele>
        <time>2016-04-23T14:02:52Z</time>
      </trkpt>
      <trkpt lat="43.29198" lon="5.35814">
        <ele>58.3</ele>
        <time>2016-04-23T14:03:06Z</time>
      </trkpt>
      <trkpt lat="43.29207" lon="5.35822">
        <ele>60.22</ele>
        <time>2016-04-23T14:03:32Z</time>
      </trkpt>
      <trkpt lat="43.29205" lon="5.35823">
        <ele>58.3</ele>
        <time>2016-04-23T14:03:53Z</time>
      </trkpt>
      <trkpt lat="43.29208" lon="5.35833">
        <ele>59.26</ele>
        <time>2016-04-23T14:04:07Z</time>
      </trkpt>
      <trkpt lat="43.29208" lon="5.35848">
        <ele>60.7</ele>
        <time>2016-04-23T14:04:20Z</time>
      </trkpt>
      <trkpt lat="43.29207" lon="5.35884">
        <ele>47.72</ele>
        <time>2016-04-23T14:04:37Z</time>
      </trkpt>
      <trkpt lat="43.29219" lon="5.35888">
        <ele>42.92</ele>
        <time>2016-04-23T14:04:50Z</time>
      </trkpt>
      <trkpt lat="43.29229" lon="5.35889">
        <ele>45.8</ele>
        <time>2016-04-23T14:05:06Z</time>
      </trkpt>
      <trkpt lat="43.29241" lon="5.35884">
        <ele>47.72</ele>
        <time>2016-04-23T14:05:22Z</time>
      </trkpt>
      <trkpt lat="43.29247" lon="5.3588">
        <ele>45.32</ele>
        <time>2016-04-23T14:05:41Z</time>
      </trkpt>
      <trkpt lat="43.29265" lon="5.35883">
        <ele>33.78</ele>
        <time>2016-04-23T14:05:55Z</time>
      </trkpt>
      <trkpt lat="43.29265" lon="5.35877">
        <ele>31.86</ele>
        <time>2016-04-23T14:06:10Z</time>
      </trkpt>
      <trkpt lat="43.2927" lon="5.35871">
        <ele>30.42</ele>
        <time>2016-04-23T14:06:33Z</time>
      </trkpt>
      <trkpt lat="43.29281" lon="5.35859">
        <ele>32.34</ele>
        <time>2016-04-23T14:06:49Z</time>
      </trkpt>
      <trkpt lat="43.29296" lon="5.35844">
        <ele>34.26</ele>
        <time>2016-04-23T14:07:06Z</time>
      </trkpt>
      <trkpt lat="43.29308" lon="5.35844">
        <ele>35.71</ele>
        <time>2016-04-23T14:07:23Z</time>
      </trkpt>
      <trkpt lat="43.29315" lon="5.35849">
        <ele>31.86</ele>
        <time>2016-04-23T14:07:41Z</time>
      </trkpt>
      <trkpt lat="43.29317" lon="5.35849">
        <ele>28.02</ele>
        <time>2016-04-23T14:08:06Z</time>
      </trkpt>
      <trkpt lat="43.29317" lon="5.35852">
        <ele>27.05</ele>
        <time>2016-04-23T14:08:21Z</time>
      </trkpt>
      <trkpt lat="43.29318" lon="5.35851">
        <ele>25.13</ele>
        <time>2016-04-23T14:08:40Z</time>
      </trkpt>
      <trkpt lat="43.29321" lon="5.3585">
        <ele>26.09</ele>
        <time>2016-04-23T14:08:58Z</time>
      </trkpt>
      <trkpt lat="43.29327" lon="5.35849">
        <ele>27.53</ele>
        <time>2016-04-23T14:09:13Z</time>
      </trkpt>
      <trkpt lat="43.29341" lon="5.35849">
        <ele>29.94</ele>
        <time>2016-04-23T14:09:31Z</time>
      </trkpt>
      <trkpt lat="43.29344" lon="5.35852">
        <ele>29.46</ele>
        <time>2016-04-23T14:09:43Z</time>
      </trkpt>
      <trkpt lat="43.2935" lon="5.35858">
        <ele>31.38</ele>
        <time>2016-04-23T14:09:55Z</time>
      </trkpt>
      <trkpt lat="43.2935" lon="5.3586">
        <ele>33.78</ele>
        <time>2016-04-23T14:10:10Z</time>
      </trkpt>
      <trkpt lat="43.2936" lon="5.35871">
        <ele>35.23</ele>
        <time>2016-04-23T14:10:25Z</time>
      </trkpt>
      <trkpt lat="43.29364" lon="5.35875">
        <ele>33.78</ele>
        <time>2016-04-23T14:10:32Z</time>
      </trkpt>
      <trkpt lat="43.29369" lon="5.35878">
        <ele>33.78</ele>
        <time>2016-04-23T14:10:50Z</time>
      </trkpt>
      <trkpt lat="43.29373" lon="5.35887">
        <ele>30.42</ele>
        <time>2016-04-23T14:11:11Z</time>
      </trkpt>
      <trkpt lat="43.29373" lon="5.3589">
        <ele>30.42</ele>
        <time>2016-04-23T14:11:36Z</time>
      </trkpt>
      <trkpt lat="43.29374" lon="5.35891">
        <ele>27.05</ele>
        <time>2016-04-23T14:12:07Z</time>
      </trkpt>
      <trkpt lat="43.29378" lon="5.35892">
        <ele>26.09</ele>
        <time>2016-04-23T14:12:27Z</time>
      </trkpt>
      <trkpt lat="43.29383" lon="5.359">
        <ele>27.53</ele>
        <time>2016-04-23T14:12:38Z</time>
      </trkpt>
      <trkpt lat="43.29392" lon="5.35911">
        <ele>27.53</ele>
        <time>2016-04-23T14:12:51Z</time>
      </trkpt>
      <trkpt lat="43.29396" lon="5.35914">
        <ele>26.57</ele>
        <time>2016-04-23T14:13:11Z</time>
      </trkpt>
      <trkpt lat="43.29398" lon="5.35912">
        <ele>24.65</ele>
        <time>2016-04-23T14:13:37Z</time>
      </trkpt>
      <trkpt lat="43.29398" lon="5.35911">
        <ele>26.09</ele>
        <time>2016-04-23T14:14:00Z</time>
      </trkpt>
      <trkpt lat="43.29398" lon="5.35911">
        <ele>26.57</ele>
        <time>2016-04-23T14:14:01Z</time>
      </trkpt>
      <trkpt lat="43.29412" lon="5.35898">
        <ele>28.5</ele>
        <time>2016-04-23T14:14:19Z</time>
      </trkpt>
      <trkpt lat="43.29423" lon="5.35884">
        <ele>29.94</ele>
        <time>2016-04-23T14:14:36Z</time>
      </trkpt>
      <trkpt lat="43.29434" lon="5.35875">
        <ele>31.86</ele>
        <time>2016-04-23T14:14:53Z</time>
      </trkpt>
      <trkpt lat="43.29443" lon="5.3587">
        <ele>33.78</ele>
        <time>2016-04-23T14:15:06Z</time>
      </trkpt>
      <trkpt lat="43.29458" lon="5.35858">
        <ele>32.82</ele>
        <time>2016-04-23T14:15:23Z</time>
      </trkpt>
      <trkpt lat="43.29467" lon="5.35851">
        <ele>32.82</ele>
        <time>2016-04-23T14:15:40Z</time>
      </trkpt>
      <trkpt lat="43.2947" lon="5.35849">
        <ele>31.38</ele>
        <time>2016-04-23T14:15:50Z</time>
      </trkpt>
      <trkpt lat="43.29472" lon="5.35852">
        <ele>31.86</ele>
        <time>2016-04-23T14:16:15Z</time>
      </trkpt>
      <trkpt lat="43.29472" lon="5.35852">
        <ele>30.42</ele>
        <time>2016-04-23T14:16:44Z</time>
      </trkpt>
      <trkpt lat="43.29473" lon="5.35849">
        <ele>28.98</ele>
        <time>2016-04-23T14:17:03Z</time>
      </trkpt>
      <trkpt lat="43.29473" lon="5.35842">
        <ele>28.02</ele>
        <time>2016-04-23T14:17:16Z</time>
      </trkpt>
      <trkpt lat="43.29473" lon="5.35844">
        <ele>27.05</ele>
        <time>2016-04-23T14:17:32Z</time>
      </trkpt>
      <trkpt lat="43.29473" lon="5.35844">
        <ele>26.09</ele>
        <time>2016-04-23T14:17:43Z</time>
      </trkpt>
      <trkpt lat="43.29471" lon="5.35845">
        <ele>27.05</ele>
        <time>2016-04-23T14:17:56Z</time>
      </trkpt>
      <trkpt lat="43.29473" lon="5.35847">
        <ele>28.5</ele>
        <time>2016-04-23T14:18:11Z</time>
      </trkpt>
      <trkpt lat="43.29473" lon="5.35849">
        <ele>28.98</ele>
        <time>2016-04-23T14:18:37Z</time>
      </trkpt>
      <trkpt lat="43.29474" lon="5.3585">
        <ele>29.94</ele>
        <time>2016-04-23T14:19:04Z</time>
      </trkpt>
      <trkpt lat="43.29472" lon="5.35852">
        <ele>28.5</ele>
        <time>2016-04-23T14:19:32Z</time>
      </trkpt>
      <trkpt lat="43.29467" lon="5.35852">
        <ele>29.46</ele>
        <time>2016-04-23T14:20:08Z</time>
      </trkpt>
      <trkpt lat="43.29468" lon="5.35852">
        <ele>30.42</ele>
        <time>2016-04-23T14:20:45Z</time>
      </trkpt>
      <trkpt lat="43.29468" lon="5.35852">
        <ele>32.34</ele>
        <time>2016-04-23T14:21:05Z</time>
      </trkpt>
      <trkpt lat="43.29467" lon="5.35851">
        <ele>32.34</ele>
        <time>2016-04-23T14:21:15Z</time>
      </trkpt>
      <trkpt lat="43.29463" lon="5.35851">
        <ele>30.9</ele>
        <time>2016-04-23T14:21:21Z</time>
      </trkpt>
      <trkpt lat="43.29462" lon="5.35846">
        <ele>29.94</ele>
        <time>2016-04-23T14:21:32Z</time>
      </trkpt>
      <trkpt lat="43.29457" lon="5.35827">
        <ele>29.94</ele>
        <time>2016-04-23T14:21:49Z</time>
      </trkpt>
      <trkpt lat="43.29448" lon="5.35808">
        <ele>29.94</ele>
        <time>2016-04-23T14:22:06Z</time>
      </trkpt>
      <trkpt lat="43.29437" lon="5.35785">
        <ele>28.98</ele>
        <time>2016-04-23T14:22:25Z</time>
      </trkpt>
      <trkpt lat="43.29429" lon="5.35775">
        <ele>28.5</ele>
        <time>2016-04-23T14:22:35Z</time>
      </trkpt>
      <trkpt lat="43.29425" lon="5.35774">
        <ele>28.02</ele>
        <time>2016-04-23T14:22:39Z</time>
      </trkpt>
      <trkpt lat="43.29413" lon="5.35781">
        <ele>26.09</ele>
        <time>2016-04-23T14:22:56Z</time>
      </trkpt>
      <trkpt lat="43.29401" lon="5.35787">
        <ele>25.13</ele>
        <time>2016-04-23T14:23:07Z</time>
      </trkpt>
      <trkpt lat="43.29397" lon="5.35788">
        <ele>25.61</ele>
        <time>2016-04-23T14:23:12Z</time>
      </trkpt>
      <trkpt lat="43.29391" lon="5.35793">
        <ele>25.13</ele>
        <time>2016-04-23T14:23:22Z</time>
      </trkpt>
      <trkpt lat="43.29383" lon="5.35799">
        <ele>27.05</ele>
        <time>2016-04-23T14:23:37Z</time>
      </trkpt>
      <trkpt lat="43.29368" lon="5.35807">
        <ele>27.05</ele>
        <time>2016-04-23T14:23:53Z</time>
      </trkpt>
      <trkpt lat="43.29352" lon="5.35815">
        <ele>27.53</ele>
        <time>2016-04-23T14:24:10Z</time>
      </trkpt>
      <trkpt lat="43.29336" lon="5.35822">
        <ele>28.5</ele>
        <time>2016-04-23T14:24:27Z</time>
      </trkpt>
      <trkpt lat="43.29318" lon="5.35833">
        <ele>28.5</ele>
        <time>2016-04-23T14:24:44Z</time>
      </trkpt>
      <trkpt lat="43.29316" lon="5.35835">
        <ele>28.5</ele>
        <time>2016-04-23T14:24:46Z</time>
      </trkpt>
      <trkpt lat="43.29311" lon="5.35837">
        <ele>28.5</ele>
        <time>2016-04-23T14:24:50Z</time>
      </trkpt>
      <trkpt lat="43.29288" lon="5.35852">
        <ele>26.09</ele>
        <time>2016-04-23T14:25:10Z</time>
      </trkpt>
      <trkpt lat="43.29285" lon="5.35857">
        <ele>26.09</ele>
        <time>2016-04-23T14:25:14Z</time>
      </trkpt>
      <trkpt lat="43.29283" lon="5.35859">
        <ele>26.09</ele>
        <time>2016-04-23T14:25:17Z</time>
      </trkpt>
      <trkpt lat="43.29281" lon="5.35865">
        <ele>26.57</ele>
        <time>2016-04-23T14:25:23Z</time>
      </trkpt>
      <trkpt lat="43.29273" lon="5.35869">
        <ele>26.09</ele>
        <time>2016-04-23T14:25:29Z</time>
      </trkpt>
      <trkpt lat="43.29271" lon="5.35869">
        <ele>26.09</ele>
        <time>2016-04-23T14:25:30Z</time>
      </trkpt>
      <trkpt lat="43.2927" lon="5.3587">
        <ele>26.09</ele>
        <time>2016-04-23T14:25:31Z</time>
      </trkpt>
      <trkpt lat="43.2926" lon="5.35881">
        <ele>26.09</ele>
        <time>2016-04-23T14:25:46Z</time>
      </trkpt>
      <trkpt lat="43.29248" lon="5.35883">
        <ele>25.61</ele>
        <time>2016-04-23T14:26:03Z</time>
      </trkpt>
      <trkpt lat="43.29225" lon="5.35883">
        <ele>25.13</ele>
        <time>2016-04-23T14:26:22Z</time>
      </trkpt>
      <trkpt lat="43.29211" lon="5.35894">
        <ele>24.17</ele>
        <time>2016-04-23T14:26:37Z</time>
      </trkpt>
      <trkpt lat="43.2921" lon="5.35907">
        <ele>21.77</ele>
        <time>2016-04-23T14:26:51Z</time>
      </trkpt>
      <trkpt lat="43.2921" lon="5.35908">
        <ele>21.29</ele>
        <time>2016-04-23T14:26:52Z</time>
      </trkpt>
      <trkpt lat="43.2921" lon="5.35908">
        <ele>20.81</ele>
        <time>2016-04-23T14:26:53Z</time>
      </trkpt>
      <trkpt lat="43.29198" lon="5.35912">
        <ele>18.4</ele>
        <time>2016-04-23T14:27:08Z</time>
      </trkpt>
      <trkpt lat="43.29182" lon="5.35913">
        <ele>16.48</ele>
        <time>2016-04-23T14:27:22Z</time>
      </trkpt>
      <trkpt lat="43.29168" lon="5.35913">
        <ele>15.52</ele>
        <time>2016-04-23T14:27:37Z</time>
      </trkpt>
      <trkpt lat="43.29164" lon="5.35912">
        <ele>15.52</ele>
        <time>2016-04-23T14:27:40Z</time>
      </trkpt>
      <trkpt lat="43.29162" lon="5.35912">
        <ele>15.52</ele>
        <time>2016-04-23T14:27:41Z</time>
      </trkpt>
      <trkpt lat="43.2916" lon="5.35912">
        <ele>15.52</ele>
        <time>2016-04-23T14:27:42Z</time>
      </trkpt>
      <trkpt lat="43.29143" lon="5.35913">
        <ele>16.96</ele>
        <time>2016-04-23T14:27:58Z</time>
      </trkpt>
      <trkpt lat="43.29141" lon="5.35912">
        <ele>16.96</ele>
        <time>2016-04-23T14:27:59Z</time>
      </trkpt>
      <trkpt lat="43.29135" lon="5.3591">
        <ele>17.92</ele>
        <time>2016-04-23T14:28:06Z</time>
      </trkpt>
      <trkpt lat="43.29123" lon="5.35914">
        <ele>22.25</ele>
        <time>2016-04-23T14:28:18Z</time>
      </trkpt>
      <trkpt lat="43.29116" lon="5.35913">
        <ele>25.61</ele>
        <time>2016-04-23T14:28:30Z</time>
      </trkpt>
      <trkpt lat="43.29103" lon="5.35908">
        <ele>26.09</ele>
        <time>2016-04-23T14:28:49Z</time>
      </trkpt>
      <trkpt lat="43.29074" lon="5.35909">
        <ele>22.73</ele>
        <time>2016-04-23T14:29:06Z</time>
      </trkpt>
      <trkpt lat="43.29074" lon="5.35912">
        <ele>22.25</ele>
        <time>2016-04-23T14:29:08Z</time>
      </trkpt>
      <trkpt lat="43.29074" lon="5.35914">
        <ele>22.25</ele>
        <time>2016-04-23T14:29:09Z</time>
      </trkpt>
      <trkpt lat="43.29073" lon="5.35916">
        <ele>22.25</ele>
        <time>2016-04-23T14:29:10Z</time>
      </trkpt>
      <trkpt lat="43.29069" lon="5.3592">
        <ele>22.25</ele>
        <time>2016-04-23T14:29:15Z</time>
      </trkpt>
      <trkpt lat="43.29068" lon="5.35921">
        <ele>22.25</ele>
        <time>2016-04-23T14:29:16Z</time>
      </trkpt>
      <trkpt lat="43.2905" lon="5.35914">
        <ele>23.21</ele>
        <time>2016-04-23T14:29:32Z</time>
      </trkpt>
      <trkpt lat="43.2904" lon="5.3591">
        <ele>22.73</ele>
        <time>2016-04-23T14:29:50Z</time>
      </trkpt>
      <trkpt lat="43.29012" lon="5.35915">
        <ele>24.65</ele>
        <time>2016-04-23T14:30:09Z</time>
      </trkpt>
      <trkpt lat="43.28989" lon="5.35913">
        <ele>27.05</ele>
        <time>2016-04-23T14:30:25Z</time>
      </trkpt>
      <trkpt lat="43.28988" lon="5.35913">
        <ele>27.05</ele>
        <time>2016-04-23T14:30:26Z</time>
      </trkpt>
      <trkpt lat="43.28973" lon="5.35912">
        <ele>28.5</ele>
        <time>2016-04-23T14:30:38Z</time>
      </trkpt>
      <trkpt lat="43.28963" lon="5.35921">
        <ele>30.42</ele>
        <time>2016-04-23T14:30:51Z</time>
      </trkpt>
      <trkpt lat="43.28954" lon="5.35924">
        <ele>31.38</ele>
        <time>2016-04-23T14:31:00Z</time>
      </trkpt>
      <trkpt lat="43.28947" lon="5.35925">
        <ele>31.86</ele>
        <time>2016-04-23T14:31:06Z</time>
      </trkpt>
      <trkpt lat="43.28932" lon="5.35925">
        <ele>33.78</ele>
        <time>2016-04-23T14:31:19Z</time>
      </trkpt>
      <trkpt lat="43.28923" lon="5.35929">
        <ele>36.67</ele>
        <time>2016-04-23T14:31:29Z</time>
      </trkpt>
      <trkpt lat="43.28922" lon="5.3593">
        <ele>37.15</ele>
        <time>2016-04-23T14:31:30Z</time>
      </trkpt>
      <trkpt lat="43.2891" lon="5.3593">
        <ele>40.99</ele>
        <time>2016-04-23T14:31:39Z</time>
      </trkpt>
      <trkpt lat="43.28892" lon="5.35933">
        <ele>46.28</ele>
        <time>2016-04-23T14:31:54Z</time>
      </trkpt>
      <trkpt lat="43.28878" lon="5.35939">
        <ele>51.57</ele>
        <time>2016-04-23T14:32:11Z</time>
      </trkpt>
      <trkpt lat="43.28877" lon="5.3596">
        <ele>50.61</ele>
        <time>2016-04-23T14:32:25Z</time>
      </trkpt>
      <trkpt lat="43.28879" lon="5.35989">
        <ele>47.24</ele>
        <time>2016-04-23T14:32:41Z</time>
      </trkpt>
      <trkpt lat="43.28881" lon="5.36026">
        <ele>39.55</ele>
        <time>2016-04-23T14:32:58Z</time>
      </trkpt>
      <trkpt lat="43.28882" lon="5.36049">
        <ele>35.71</ele>
        <time>2016-04-23T14:33:12Z</time>
      </trkpt>
      <trkpt lat="43.28886" lon="5.36072">
        <ele>32.34</ele>
        <time>2016-04-23T14:33:27Z</time>
      </trkpt>
      <trkpt lat="43.28893" lon="5.36077">
        <ele>37.15</ele>
        <time>2016-04-23T14:33:41Z</time>
      </trkpt>
      <trkpt lat="43.28895" lon="5.36096">
        <ele>34.74</ele>
        <time>2016-04-23T14:33:57Z</time>
      </trkpt>
      <trkpt lat="43.28896" lon="5.36131">
        <ele>27.05</ele>
        <time>2016-04-23T14:34:16Z</time>
      </trkpt>
      <trkpt lat="43.28899" lon="5.36158">
        <ele>23.21</ele>
        <time>2016-04-23T14:34:33Z</time>
      </trkpt>
      <trkpt lat="43.28902" lon="5.36185">
        <ele>19.84</ele>
        <time>2016-04-23T14:34:50Z</time>
      </trkpt>
      <trkpt lat="43.28904" lon="5.36202">
        <ele>17.44</ele>
        <time>2016-04-23T14:35:05Z</time>
      </trkpt>
      <trkpt lat="43.28911" lon="5.36215">
        <ele>16.96</ele>
        <time>2016-04-23T14:35:21Z</time>
      </trkpt>
      <trkpt lat="43.2892" lon="5.36238">
        <ele>13.6</ele>
        <time>2016-04-23T14:35:37Z</time>
      </trkpt>
      <trkpt lat="43.28916" lon="5.36254">
        <ele>4.46</ele>
        <time>2016-04-23T14:35:51Z</time>
      </trkpt>
      <trkpt lat="43.28922" lon="5.36264">
        <ele>10.71</ele>
        <time>2016-04-23T14:36:04Z</time>
      </trkpt>
      <trkpt lat="43.28926" lon="5.36291">
        <ele>7.35</ele>
        <time>2016-04-23T14:36:22Z</time>
      </trkpt>
      <trkpt lat="43.28933" lon="5.36309">
        <ele>13.12</ele>
        <time>2016-04-23T14:36:39Z</time>
      </trkpt>
      <trkpt lat="43.2894" lon="5.36334">
        <ele>18.88</ele>
        <time>2016-04-23T14:36:57Z</time>
      </trkpt>
      <trkpt lat="43.28942" lon="5.36352">
        <ele>22.25</ele>
        <time>2016-04-23T14:37:12Z</time>
      </trkpt>
      <trkpt lat="43.28941" lon="5.36367">
        <ele>26.57</ele>
        <time>2016-04-23T14:37:26Z</time>
      </trkpt>
      <trkpt lat="43.28942" lon="5.36386">
        <ele>28.5</ele>
        <time>2016-04-23T14:37:41Z</time>
      </trkpt>
      <trkpt lat="43.2894" lon="5.36391">
        <ele>28.5</ele>
        <time>2016-04-23T14:37:56Z</time>
      </trkpt>
      <trkpt lat="43.28942" lon="5.36398">
        <ele>28.98</ele>
        <time>2016-04-23T14:38:13Z</time>
      </trkpt>
      <trkpt lat="43.28946" lon="5.36421">
        <ele>28.98</ele>
        <time>2016-04-23T14:38:28Z</time>
      </trkpt>
      <trkpt lat="43.28955" lon="5.3644">
        <ele>26.57</ele>
        <time>2016-04-23T14:38:43Z</time>
      </trkpt>
      <trkpt lat="43.2895" lon="5.36456">
        <ele>26.57</ele>
        <time>2016-04-23T14:39:00Z</time>
      </trkpt>
      <trkpt lat="43.2895" lon="5.36464">
        <ele>32.82</ele>
        <time>2016-04-23T14:39:28Z</time>
      </trkpt>
      <trkpt lat="43.28951" lon="5.36468">
        <ele>32.82</ele>
        <time>2016-04-23T14:39:49Z</time>
      </trkpt>
      <trkpt lat="43.28953" lon="5.3647">
        <ele>34.74</ele>
        <time>2016-04-23T14:40:15Z</time>
      </trkpt>
      <trkpt lat="43.28954" lon="5.3648">
        <ele>34.26</ele>
        <time>2016-04-23T14:40:33Z</time>
      </trkpt>
      <trkpt lat="43.28959" lon="5.36502">
        <ele>28.98</ele>
        <time>2016-04-23T14:40:47Z</time>
      </trkpt>
      <trkpt lat="43.28964" lon="5.3652">
        <ele>43.4</ele>
        <time>2016-04-23T14:41:00Z</time>
      </trkpt>
      <trkpt lat="43.28969" lon="5.36528">
        <ele>47.24</ele>
        <time>2016-04-23T14:41:09Z</time>
      </trkpt>
      <trkpt lat="43.28973" lon="5.36541">
        <ele>42.44</ele>
        <time>2016-04-23T14:41:23Z</time>
      </trkpt>
      <trkpt lat="43.28974" lon="5.36563">
        <ele>34.26</ele>
        <time>2016-04-23T14:41:39Z</time>
      </trkpt>
      <trkpt lat="43.28976" lon="5.3658">
        <ele>26.09</ele>
        <time>2016-04-23T14:41:54Z</time>
      </trkpt>
      <trkpt lat="43.2898" lon="5.36616">
        <ele>17.44</ele>
        <time>2016-04-23T14:42:13Z</time>
      </trkpt>
      <trkpt lat="43.28989" lon="5.36625">
        <ele>22.25</ele>
        <time>2016-04-23T14:42:27Z</time>
      </trkpt>
      <trkpt lat="43.28991" lon="5.36626">
        <ele>24.65</ele>
        <time>2016-04-23T14:42:31Z</time>
      </trkpt>
      <trkpt lat="43.29004" lon="5.36627">
        <ele>31.86</ele>
        <time>2016-04-23T14:42:45Z</time>
      </trkpt>
      <trkpt lat="43.29012" lon="5.36629">
        <ele>37.63</ele>
        <time>2016-04-23T14:42:53Z</time>
      </trkpt>
      <trkpt lat="43.29024" lon="5.36634">
        <ele>38.59</ele>
        <time>2016-04-23T14:43:08Z</time>
      </trkpt>
      <trkpt lat="43.29039" lon="5.36641">
        <ele>39.55</ele>
        <time>2016-04-23T14:43:24Z</time>
      </trkpt>
      <trkpt lat="43.29056" lon="5.36647">
        <ele>40.03</ele>
        <time>2016-04-23T14:43:40Z</time>
      </trkpt>
      <trkpt lat="43.29068" lon="5.36656">
        <ele>35.23</ele>
        <time>2016-04-23T14:43:54Z</time>
      </trkpt>
      <trkpt lat="43.29071" lon="5.36659">
        <ele>43.4</ele>
        <time>2016-04-23T14:44:14Z</time>
      </trkpt>
      <trkpt lat="43.29068" lon="5.36659">
        <ele>44.84</ele>
        <time>2016-04-23T14:44:36Z</time>
      </trkpt>
      <trkpt lat="43.29069" lon="5.36656">
        <ele>42.92</ele>
        <time>2016-04-23T14:44:55Z</time>
      </trkpt>
      <trkpt lat="43.29072" lon="5.36655">
        <ele>37.15</ele>
        <time>2016-04-23T14:45:17Z</time>
      </trkpt>
      <trkpt lat="43.29069" lon="5.36661">
        <ele>33.3</ele>
        <time>2016-04-23T14:45:44Z</time>
      </trkpt>
      <trkpt lat="43.29059" lon="5.36655">
        <ele>27.05</ele>
        <time>2016-04-23T14:46:06Z</time>
      </trkpt>
      <trkpt lat="43.29043" lon="5.36661">
        <ele>18.4</ele>
        <time>2016-04-23T14:46:23Z</time>
      </trkpt>
      <trkpt lat="43.29063" lon="5.36653">
        <ele>26.57</ele>
        <time>2016-04-23T14:46:36Z</time>
      </trkpt>
      <trkpt lat="43.29065" lon="5.36656">
        <ele>36.67</ele>
        <time>2016-04-23T14:47:02Z</time>
      </trkpt>
      <trkpt lat="43.29074" lon="5.36663">
        <ele>40.03</ele>
        <time>2016-04-23T14:47:20Z</time>
      </trkpt>
      <trkpt lat="43.29079" lon="5.36658">
        <ele>42.92</ele>
        <time>2016-04-23T14:47:32Z</time>
      </trkpt>
      <trkpt lat="43.29082" lon="5.36655">
        <ele>43.4</ele>
        <time>2016-04-23T14:47:50Z</time>
      </trkpt>
      <trkpt lat="43.29088" lon="5.36651">
        <ele>46.76</ele>
        <time>2016-04-23T14:48:02Z</time>
      </trkpt>
      <trkpt lat="43.29093" lon="5.36652">
        <ele>53.49</ele>
        <time>2016-04-23T14:48:18Z</time>
      </trkpt>
      <trkpt lat="43.29096" lon="5.3665">
        <ele>55.89</ele>
        <time>2016-04-23T14:48:40Z</time>
      </trkpt>
      <trkpt lat="43.29098" lon="5.36649">
        <ele>57.82</ele>
        <time>2016-04-23T14:49:09Z</time>
      </trkpt>
      <trkpt lat="43.29094" lon="5.36653">
        <ele>53.49</ele>
        <time>2016-04-23T14:49:32Z</time>
      </trkpt>
      <trkpt lat="43.29101" lon="5.36652">
        <ele>52.05</ele>
        <time>2016-04-23T14:49:58Z</time>
      </trkpt>
      <trkpt lat="43.29099" lon="5.36659">
        <ele>51.57</ele>
        <time>2016-04-23T14:50:12Z</time>
      </trkpt>
      <trkpt lat="43.29108" lon="5.36663">
        <ele>53.49</ele>
        <time>2016-04-23T14:50:25Z</time>
      </trkpt>
      <trkpt lat="43.29127" lon="5.36673">
        <ele>37.63</ele>
        <time>2016-04-23T14:50:41Z</time>
      </trkpt>
      <trkpt lat="43.2914" lon="5.36684">
        <ele>30.42</ele>
        <time>2016-04-23T14:50:54Z</time>
      </trkpt>
      <trkpt lat="43.29149" lon="5.36693">
        <ele>25.61</ele>
        <time>2016-04-23T14:51:07Z</time>
      </trkpt>
      <trkpt lat="43.29152" lon="5.36695">
        <ele>23.69</ele>
        <time>2016-04-23T14:51:16Z</time>
      </trkpt>
      <trkpt lat="43.29153" lon="5.36698">
        <ele>23.21</ele>
        <time>2016-04-23T14:51:18Z</time>
      </trkpt>
      <trkpt lat="43.29157" lon="5.36715">
        <ele>20.81</ele>
        <time>2016-04-23T14:51:31Z</time>
      </trkpt>
      <trkpt lat="43.29157" lon="5.36719">
        <ele>20.81</ele>
        <time>2016-04-23T14:51:34Z</time>
      </trkpt>
      <trkpt lat="43.29161" lon="5.36731">
        <ele>22.25</ele>
        <time>2016-04-23T14:51:49Z</time>
      </trkpt>
      <trkpt lat="43.29168" lon="5.36745">
        <ele>26.57</ele>
        <time>2016-04-23T14:52:03Z</time>
      </trkpt>
      <trkpt lat="43.29174" lon="5.36762">
        <ele>26.09</ele>
        <time>2016-04-23T14:52:15Z</time>
      </trkpt>
      <trkpt lat="43.29175" lon="5.36764">
        <ele>26.09</ele>
        <time>2016-04-23T14:52:16Z</time>
      </trkpt>
      <trkpt lat="43.29178" lon="5.36771">
        <ele>25.13</ele>
        <time>2016-04-23T14:52:23Z</time>
      </trkpt>
      <trkpt lat="43.29182" lon="5.36783">
        <ele>26.09</ele>
        <time>2016-04-23T14:52:32Z</time>
      </trkpt>
      <trkpt lat="43.29189" lon="5.36798">
        <ele>27.05</ele>
        <time>2016-04-23T14:52:47Z</time>
      </trkpt>
      <trkpt lat="43.2919" lon="5.36801">
        <ele>27.53</ele>
        <time>2016-04-23T14:53:09Z</time>
      </trkpt>
    </trkseg>
  </trk>
</gpx>